<?xml version="1.0" encoding="UTF-8" standalone="no" ?>
<gpx xmlns="http://www.topografix.com/GPX/1/1" xmlns:xsi="http://www.w3.org/2001/XMLSchema-instance" xsi:schemaLocation="http://www.topografix.com/GPX/1/1 http://www.topografix.com/GPX/1/1/gpx.xsd" version="1.1" creator="VisuGPX - https://www.visugpx.com">
  <metadata>
    <name>ronde vtt</name>
  </metadata>
  <trk>
    <name><![CDATA[ronde vtt_1]]></name>
    <trkseg>
      <trkpt lat="43.66252" lon="2.36925">
        <ele>589.301636</ele>
        <time>2015-11-11T15:13:38Z</time>
      </trkpt>
      <trkpt lat="43.66239" lon="2.36874">
        <ele>590.144165</ele>
        <time>2015-11-11T15:13:48Z</time>
      </trkpt>
      <trkpt lat="43.66239" lon="2.36874">
        <ele>590.144165</ele>
        <time>2015-11-11T15:13:48Z</time>
      </trkpt>
      <trkpt lat="43.66236" lon="2.36822">
        <ele>592.491272</ele>
        <time>2015-11-11T15:13:58Z</time>
      </trkpt>
      <trkpt lat="43.6623" lon="2.36797">
        <ele>593.79248</ele>
        <time>2015-11-11T15:14:06Z</time>
      </trkpt>
      <trkpt lat="43.66191" lon="2.36789">
        <ele>595.919556</ele>
        <time>2015-11-11T15:14:18Z</time>
      </trkpt>
      <trkpt lat="43.6617" lon="2.36778">
        <ele>597.341675</ele>
        <time>2015-11-11T15:14:26Z</time>
      </trkpt>
      <trkpt lat="43.66159" lon="2.36758">
        <ele>598.659607</ele>
        <time>2015-11-11T15:17:00Z</time>
      </trkpt>
      <trkpt lat="43.6615" lon="2.36708">
        <ele>600.429993</ele>
        <time>2015-11-11T15:17:52Z</time>
      </trkpt>
      <trkpt lat="43.66151" lon="2.36596">
        <ele>600.96875</ele>
        <time>2015-11-11T15:18:36Z</time>
      </trkpt>
      <trkpt lat="43.66154" lon="2.3657">
        <ele>600.627502</ele>
        <time>2015-11-11T15:18:44Z</time>
      </trkpt>
      <trkpt lat="43.66144" lon="2.36546">
        <ele>598.708618</ele>
        <time>2015-11-11T15:18:58Z</time>
      </trkpt>
      <trkpt lat="43.66129" lon="2.36528">
        <ele>597.509277</ele>
        <time>2015-11-11T15:19:08Z</time>
      </trkpt>
      <trkpt lat="43.6614" lon="2.36503">
        <ele>595.282715</ele>
        <time>2015-11-11T15:19:16Z</time>
      </trkpt>
      <trkpt lat="43.66124" lon="2.36446">
        <ele>588.541626</ele>
        <time>2015-11-11T15:19:32Z</time>
      </trkpt>
      <trkpt lat="43.6612" lon="2.36419">
        <ele>586.634766</ele>
        <time>2015-11-11T15:19:38Z</time>
      </trkpt>
      <trkpt lat="43.66101" lon="2.36374">
        <ele>585.315857</ele>
        <time>2015-11-11T15:20:00Z</time>
      </trkpt>
      <trkpt lat="43.66089" lon="2.36355">
        <ele>586.024902</ele>
        <time>2015-11-11T15:20:16Z</time>
      </trkpt>
      <trkpt lat="43.66071" lon="2.36365">
        <ele>587.016235</ele>
        <time>2015-11-11T15:20:26Z</time>
      </trkpt>
      <trkpt lat="43.65996" lon="2.36389">
        <ele>585.546509</ele>
        <time>2015-11-11T15:21:14Z</time>
      </trkpt>
      <trkpt lat="43.65976" lon="2.36389">
        <ele>583.371155</ele>
        <time>2015-11-11T15:21:46Z</time>
      </trkpt>
      <trkpt lat="43.65947" lon="2.36356">
        <ele>580.626099</ele>
        <time>2015-11-11T15:22:30Z</time>
      </trkpt>
      <trkpt lat="43.6595" lon="2.36329">
        <ele>581.087524</ele>
        <time>2015-11-11T15:22:48Z</time>
      </trkpt>
      <trkpt lat="43.65947" lon="2.36299">
        <ele>578.973206</ele>
        <time>2015-11-11T15:23:02Z</time>
      </trkpt>
      <trkpt lat="43.65953" lon="2.36248">
        <ele>575.80658</ele>
        <time>2015-11-11T15:23:08Z</time>
      </trkpt>
      <trkpt lat="43.65952" lon="2.36219">
        <ele>573.359192</ele>
        <time>2015-11-11T15:23:10Z</time>
      </trkpt>
      <trkpt lat="43.65974" lon="2.36133">
        <ele>572.506104</ele>
        <time>2015-11-11T15:23:18Z</time>
      </trkpt>
      <trkpt lat="43.66001" lon="2.36053">
        <ele>572.537415</ele>
        <time>2015-11-11T15:23:26Z</time>
      </trkpt>
      <trkpt lat="43.66032" lon="2.35988">
        <ele>568.406128</ele>
        <time>2015-11-11T15:23:34Z</time>
      </trkpt>
      <trkpt lat="43.66031" lon="2.35951">
        <ele>564.51532</ele>
        <time>2015-11-11T15:23:40Z</time>
      </trkpt>
      <trkpt lat="43.66043" lon="2.35927">
        <ele>562.798462</ele>
        <time>2015-11-11T15:23:44Z</time>
      </trkpt>
      <trkpt lat="43.66041" lon="2.35896">
        <ele>561.295654</ele>
        <time>2015-11-11T15:23:50Z</time>
      </trkpt>
      <trkpt lat="43.66015" lon="2.35835">
        <ele>558.558777</ele>
        <time>2015-11-11T15:23:58Z</time>
      </trkpt>
      <trkpt lat="43.66012" lon="2.35803">
        <ele>557.113464</ele>
        <time>2015-11-11T15:24:04Z</time>
      </trkpt>
      <trkpt lat="43.66015" lon="2.35776">
        <ele>556.058228</ele>
        <time>2015-11-11T15:24:08Z</time>
      </trkpt>
      <trkpt lat="43.66015" lon="2.35742">
        <ele>554.516235</ele>
        <time>2015-11-11T15:24:12Z</time>
      </trkpt>
      <trkpt lat="43.66003" lon="2.35681">
        <ele>551.514221</ele>
        <time>2015-11-11T15:24:20Z</time>
      </trkpt>
      <trkpt lat="43.65975" lon="2.35567">
        <ele>548.030457</ele>
        <time>2015-11-11T15:24:30Z</time>
      </trkpt>
      <trkpt lat="43.65965" lon="2.35362">
        <ele>540.603699</ele>
        <time>2015-11-11T15:24:42Z</time>
      </trkpt>
      <trkpt lat="43.65939" lon="2.35255">
        <ele>539.024658</ele>
        <time>2015-11-11T15:24:50Z</time>
      </trkpt>
      <trkpt lat="43.6593" lon="2.35231">
        <ele>536.835938</ele>
        <time>2015-11-11T15:24:52Z</time>
      </trkpt>
      <trkpt lat="43.65903" lon="2.35119">
        <ele>530.474426</ele>
        <time>2015-11-11T15:25:00Z</time>
      </trkpt>
      <trkpt lat="43.65883" lon="2.34965">
        <ele>524.113831</ele>
        <time>2015-11-11T15:25:10Z</time>
      </trkpt>
      <trkpt lat="43.65861" lon="2.34749">
        <ele>519.718994</ele>
        <time>2015-11-11T15:25:26Z</time>
      </trkpt>
      <trkpt lat="43.6585" lon="2.34723">
        <ele>522.7</ele>
      </trkpt>
      <trkpt lat="43.65849" lon="2.34719">
        <ele>519.096375</ele>
        <time>2015-11-11T12:31:43Z</time>
      </trkpt>
      <trkpt lat="43.65849" lon="2.34719">
        <ele>519.096375</ele>
        <time>2015-11-11T12:31:43Z</time>
      </trkpt>
      <trkpt lat="43.65827" lon="2.34677">
        <ele>518.785645</ele>
        <time>2015-11-11T12:31:47Z</time>
      </trkpt>
      <trkpt lat="43.65813" lon="2.34631">
        <ele>518.286621</ele>
        <time>2015-11-11T12:31:51Z</time>
      </trkpt>
      <trkpt lat="43.65812" lon="2.34605">
        <ele>517.173462</ele>
        <time>2015-11-11T12:31:53Z</time>
      </trkpt>
      <trkpt lat="43.65817" lon="2.34515">
        <ele>511.04483</ele>
        <time>2015-11-11T12:32:01Z</time>
      </trkpt>
      <trkpt lat="43.65824" lon="2.34477">
        <ele>507.369476</ele>
        <time>2015-11-11T12:32:05Z</time>
      </trkpt>
      <trkpt lat="43.65816" lon="2.3445">
        <ele>505.672668</ele>
        <time>2015-11-11T12:32:09Z</time>
      </trkpt>
      <trkpt lat="43.65817" lon="2.3441">
        <ele>501.731628</ele>
        <time>2015-11-11T12:32:13Z</time>
      </trkpt>
      <trkpt lat="43.65839" lon="2.34389">
        <ele>496.941376</ele>
        <time>2015-11-11T12:32:17Z</time>
      </trkpt>
      <trkpt lat="43.65849" lon="2.34358">
        <ele>492.589447</ele>
        <time>2015-11-11T12:32:21Z</time>
      </trkpt>
      <trkpt lat="43.6583" lon="2.34351">
        <ele>492.942474</ele>
        <time>2015-11-11T12:32:25Z</time>
      </trkpt>
      <trkpt lat="43.65807" lon="2.34354">
        <ele>494.284119</ele>
        <time>2015-11-11T12:32:29Z</time>
      </trkpt>
      <trkpt lat="43.65783" lon="2.34353">
        <ele>493.78299</ele>
        <time>2015-11-11T12:32:33Z</time>
      </trkpt>
      <trkpt lat="43.65734" lon="2.34357">
        <ele>496.599579</ele>
        <time>2015-11-11T12:32:41Z</time>
      </trkpt>
      <trkpt lat="43.65711" lon="2.34347">
        <ele>497.415985</ele>
        <time>2015-11-11T12:32:45Z</time>
      </trkpt>
      <trkpt lat="43.65655" lon="2.34303">
        <ele>498.122498</ele>
        <time>2015-11-11T12:32:57Z</time>
      </trkpt>
      <trkpt lat="43.65637" lon="2.343">
        <ele>499.891266</ele>
        <time>2015-11-11T12:33:01Z</time>
      </trkpt>
      <trkpt lat="43.65612" lon="2.34302">
        <ele>502.268738</ele>
        <time>2015-11-11T12:33:07Z</time>
      </trkpt>
      <trkpt lat="43.65569" lon="2.34313">
        <ele>505.062408</ele>
        <time>2015-11-11T12:33:17Z</time>
      </trkpt>
      <trkpt lat="43.65532" lon="2.34317">
        <ele>504.370422</ele>
        <time>2015-11-11T12:33:25Z</time>
      </trkpt>
      <trkpt lat="43.65509" lon="2.34335">
        <ele>503.688507</ele>
        <time>2015-11-11T12:33:31Z</time>
      </trkpt>
      <trkpt lat="43.65498" lon="2.34356">
        <ele>501.885864</ele>
        <time>2015-11-11T12:33:35Z</time>
      </trkpt>
      <trkpt lat="43.65491" lon="2.34384">
        <ele>498.754639</ele>
        <time>2015-11-11T12:33:39Z</time>
      </trkpt>
      <trkpt lat="43.65493" lon="2.34417">
        <ele>496.228699</ele>
        <time>2015-11-11T12:33:43Z</time>
      </trkpt>
      <trkpt lat="43.65511" lon="2.34487">
        <ele>496.905701</ele>
        <time>2015-11-11T12:33:51Z</time>
      </trkpt>
      <trkpt lat="43.65511" lon="2.34526">
        <ele>497.43512</ele>
        <time>2015-11-11T12:33:55Z</time>
      </trkpt>
      <trkpt lat="43.65487" lon="2.3461">
        <ele>492.3125</ele>
        <time>2015-11-11T12:34:03Z</time>
      </trkpt>
      <trkpt lat="43.65481" lon="2.34652">
        <ele>492.449188</ele>
        <time>2015-11-11T12:34:07Z</time>
      </trkpt>
      <trkpt lat="43.65479" lon="2.34787">
        <ele>497.523682</ele>
        <time>2015-11-11T12:34:19Z</time>
      </trkpt>
      <trkpt lat="43.65483" lon="2.34835">
        <ele>496.961395</ele>
        <time>2015-11-11T12:34:23Z</time>
      </trkpt>
      <trkpt lat="43.65481" lon="2.34879">
        <ele>495.513336</ele>
        <time>2015-11-11T12:34:27Z</time>
      </trkpt>
      <trkpt lat="43.65463" lon="2.34918">
        <ele>492.542175</ele>
        <time>2015-11-11T12:34:31Z</time>
      </trkpt>
      <trkpt lat="43.6544" lon="2.34945">
        <ele>492.423035</ele>
        <time>2015-11-11T12:34:35Z</time>
      </trkpt>
      <trkpt lat="43.65415" lon="2.34942">
        <ele>493.297363</ele>
        <time>2015-11-11T12:34:39Z</time>
      </trkpt>
      <trkpt lat="43.65393" lon="2.34919">
        <ele>493.735107</ele>
        <time>2015-11-11T12:34:44Z</time>
      </trkpt>
      <trkpt lat="43.65407" lon="2.34891">
        <ele>492.041656</ele>
        <time>2015-11-11T12:34:50Z</time>
      </trkpt>
      <trkpt lat="43.65401" lon="2.34864">
        <ele>491.367676</ele>
        <time>2015-11-11T12:34:54Z</time>
      </trkpt>
      <trkpt lat="43.65383" lon="2.34859">
        <ele>493.086365</ele>
        <time>2015-11-11T12:34:58Z</time>
      </trkpt>
      <trkpt lat="43.65363" lon="2.34867">
        <ele>495.141144</ele>
        <time>2015-11-11T12:35:06Z</time>
      </trkpt>
      <trkpt lat="43.65346" lon="2.3489">
        <ele>496.396423</ele>
        <time>2015-11-11T12:35:14Z</time>
      </trkpt>
      <trkpt lat="43.65326" lon="2.34908">
        <ele>497.446259</ele>
        <time>2015-11-11T12:35:22Z</time>
      </trkpt>
      <trkpt lat="43.65285" lon="2.34926">
        <ele>499.041351</ele>
        <time>2015-11-11T12:35:36Z</time>
      </trkpt>
      <trkpt lat="43.65269" lon="2.34942">
        <ele>499.056702</ele>
        <time>2015-11-11T12:35:42Z</time>
      </trkpt>
      <trkpt lat="43.65218" lon="2.34949">
        <ele>501.619995</ele>
        <time>2015-11-11T12:36:00Z</time>
      </trkpt>
      <trkpt lat="43.65203" lon="2.34969">
        <ele>501.830017</ele>
        <time>2015-11-11T12:36:10Z</time>
      </trkpt>
      <trkpt lat="43.65165" lon="2.34962">
        <ele>507.512115</ele>
        <time>2015-11-11T12:36:44Z</time>
      </trkpt>
      <trkpt lat="43.65145" lon="2.34964">
        <ele>510.436859</ele>
        <time>2015-11-11T12:36:54Z</time>
      </trkpt>
      <trkpt lat="43.65124" lon="2.34959">
        <ele>513.176086</ele>
        <time>2015-11-11T12:37:04Z</time>
      </trkpt>
      <trkpt lat="43.65106" lon="2.3496">
        <ele>514.765076</ele>
        <time>2015-11-11T12:37:12Z</time>
      </trkpt>
      <trkpt lat="43.65087" lon="2.3497">
        <ele>515.602478</ele>
        <time>2015-11-11T12:37:20Z</time>
      </trkpt>
      <trkpt lat="43.65065" lon="2.34977">
        <ele>517.460022</ele>
        <time>2015-11-11T12:37:30Z</time>
      </trkpt>
      <trkpt lat="43.65042" lon="2.34972">
        <ele>520.312622</ele>
        <time>2015-11-11T12:37:40Z</time>
      </trkpt>
      <trkpt lat="43.64986" lon="2.34982">
        <ele>524.885498</ele>
        <time>2015-11-11T12:38:06Z</time>
      </trkpt>
      <trkpt lat="43.64951" lon="2.35001">
        <ele>527.212524</ele>
        <time>2015-11-11T12:38:30Z</time>
      </trkpt>
      <trkpt lat="43.64907" lon="2.35006">
        <ele>531.815002</ele>
        <time>2015-11-11T12:38:50Z</time>
      </trkpt>
      <trkpt lat="43.64888" lon="2.35012">
        <ele>533.467529</ele>
        <time>2015-11-11T12:38:58Z</time>
      </trkpt>
      <trkpt lat="43.64829" lon="2.35048">
        <ele>537.231262</ele>
        <time>2015-11-11T12:39:20Z</time>
      </trkpt>
      <trkpt lat="43.64762" lon="2.35149">
        <ele>540.055542</ele>
        <time>2015-11-11T12:39:56Z</time>
      </trkpt>
      <trkpt lat="43.64751" lon="2.35172">
        <ele>540.414917</ele>
        <time>2015-11-11T12:40:02Z</time>
      </trkpt>
      <trkpt lat="43.64735" lon="2.3519">
        <ele>542.525574</ele>
        <time>2015-11-11T12:40:10Z</time>
      </trkpt>
      <trkpt lat="43.64712" lon="2.35237">
        <ele>543.468506</ele>
        <time>2015-11-11T12:40:28Z</time>
      </trkpt>
      <trkpt lat="43.64703" lon="2.35269">
        <ele>543.739319</ele>
        <time>2015-11-11T12:40:40Z</time>
      </trkpt>
      <trkpt lat="43.64657" lon="2.35317">
        <ele>548.199158</ele>
        <time>2015-11-11T12:41:08Z</time>
      </trkpt>
      <trkpt lat="43.64658" lon="2.35284">
        <ele>549.238525</ele>
        <time>2015-11-11T12:41:24Z</time>
      </trkpt>
      <trkpt lat="43.64635" lon="2.35275">
        <ele>550.351257</ele>
        <time>2015-11-11T12:41:32Z</time>
      </trkpt>
      <trkpt lat="43.64612" lon="2.35288">
        <ele>550.003723</ele>
        <time>2015-11-11T12:41:38Z</time>
      </trkpt>
      <trkpt lat="43.64602" lon="2.35315">
        <ele>551.95459</ele>
        <time>2015-11-11T12:41:44Z</time>
      </trkpt>
      <trkpt lat="43.64572" lon="2.35359">
        <ele>554.800476</ele>
        <time>2015-11-11T12:42:00Z</time>
      </trkpt>
      <trkpt lat="43.6455" lon="2.35407">
        <ele>558.815002</ele>
        <time>2015-11-11T12:42:16Z</time>
      </trkpt>
      <trkpt lat="43.64537" lon="2.3546">
        <ele>561.238159</ele>
        <time>2015-11-11T12:42:32Z</time>
      </trkpt>
      <trkpt lat="43.64497" lon="2.3553">
        <ele>563.203369</ele>
        <time>2015-11-11T12:42:56Z</time>
      </trkpt>
      <trkpt lat="43.64475" lon="2.35585">
        <ele>565.941895</ele>
        <time>2015-11-11T12:43:14Z</time>
      </trkpt>
      <trkpt lat="43.64459" lon="2.35607">
        <ele>567.669983</ele>
        <time>2015-11-11T12:43:22Z</time>
      </trkpt>
      <trkpt lat="43.64405" lon="2.35655">
        <ele>569.811401</ele>
        <time>2015-11-11T12:43:44Z</time>
      </trkpt>
      <trkpt lat="43.64375" lon="2.35701">
        <ele>569.860901</ele>
        <time>2015-11-11T12:44:00Z</time>
      </trkpt>
      <trkpt lat="43.64369" lon="2.35728">
        <ele>568.216736</ele>
        <time>2015-11-11T12:44:06Z</time>
      </trkpt>
      <trkpt lat="43.64369" lon="2.35755">
        <ele>566.582031</ele>
        <time>2015-11-11T12:44:10Z</time>
      </trkpt>
      <trkpt lat="43.64386" lon="2.35839">
        <ele>558.924011</ele>
        <time>2015-11-11T12:44:28Z</time>
      </trkpt>
      <trkpt lat="43.64399" lon="2.35864">
        <ele>555.478149</ele>
        <time>2015-11-11T12:44:36Z</time>
      </trkpt>
      <trkpt lat="43.64405" lon="2.35893">
        <ele>551.83429</ele>
        <time>2015-11-11T12:44:44Z</time>
      </trkpt>
      <trkpt lat="43.64391" lon="2.35919">
        <ele>549.798218</ele>
        <time>2015-11-11T12:44:50Z</time>
      </trkpt>
      <trkpt lat="43.64368" lon="2.35933">
        <ele>549.582031</ele>
        <time>2015-11-11T12:44:56Z</time>
      </trkpt>
      <trkpt lat="43.64353" lon="2.35918">
        <ele>551.3526</ele>
        <time>2015-11-11T12:45:00Z</time>
      </trkpt>
      <trkpt lat="43.6434" lon="2.3594">
        <ele>550.117188</ele>
        <time>2015-11-11T12:45:06Z</time>
      </trkpt>
      <trkpt lat="43.64346" lon="2.35975">
        <ele>548.282776</ele>
        <time>2015-11-11T12:45:12Z</time>
      </trkpt>
      <trkpt lat="43.64365" lon="2.35991">
        <ele>546.550659</ele>
        <time>2015-11-11T12:45:16Z</time>
      </trkpt>
      <trkpt lat="43.64387" lon="2.35996">
        <ele>545.078857</ele>
        <time>2015-11-11T12:45:20Z</time>
      </trkpt>
      <trkpt lat="43.64434" lon="2.35989">
        <ele>542.869995</ele>
        <time>2015-11-11T12:45:28Z</time>
      </trkpt>
      <trkpt lat="43.64473" lon="2.35948">
        <ele>540.705872</ele>
        <time>2015-11-11T12:45:38Z</time>
      </trkpt>
      <trkpt lat="43.64512" lon="2.35971">
        <ele>540.225952</ele>
        <time>2015-11-11T12:45:48Z</time>
      </trkpt>
      <trkpt lat="43.6453" lon="2.35977">
        <ele>541.287354</ele>
        <time>2015-11-11T12:45:52Z</time>
      </trkpt>
      <trkpt lat="43.64549" lon="2.35975">
        <ele>541.978943</ele>
        <time>2015-11-11T12:45:56Z</time>
      </trkpt>
      <trkpt lat="43.6459" lon="2.35991">
        <ele>545.83374</ele>
        <time>2015-11-11T12:46:12Z</time>
      </trkpt>
      <trkpt lat="43.64627" lon="2.35978">
        <ele>546.701233</ele>
        <time>2015-11-11T12:46:30Z</time>
      </trkpt>
      <trkpt lat="43.64649" lon="2.35978">
        <ele>547.614868</ele>
        <time>2015-11-11T12:46:44Z</time>
      </trkpt>
      <trkpt lat="43.64668" lon="2.35984">
        <ele>548.678894</ele>
        <time>2015-11-11T12:46:56Z</time>
      </trkpt>
      <trkpt lat="43.64689" lon="2.3598">
        <ele>549.091492</ele>
        <time>2015-11-11T12:47:06Z</time>
      </trkpt>
      <trkpt lat="43.64746" lon="2.35992">
        <ele>553.774963</ele>
        <time>2015-11-11T12:47:34Z</time>
      </trkpt>
      <trkpt lat="43.64761" lon="2.36009">
        <ele>556.84375</ele>
        <time>2015-11-11T12:47:46Z</time>
      </trkpt>
      <trkpt lat="43.64765" lon="2.36035">
        <ele>559.349976</ele>
        <time>2015-11-11T12:47:56Z</time>
      </trkpt>
      <trkpt lat="43.64778" lon="2.36086">
        <ele>564.490845</ele>
        <time>2015-11-11T12:48:16Z</time>
      </trkpt>
      <trkpt lat="43.64802" lon="2.36128">
        <ele>567.716248</ele>
        <time>2015-11-11T12:48:38Z</time>
      </trkpt>
      <trkpt lat="43.64763" lon="2.36287">
        <ele>577.611816</ele>
        <time>2015-11-11T12:49:34Z</time>
      </trkpt>
      <trkpt lat="43.6476" lon="2.36312">
        <ele>578.788269</ele>
        <time>2015-11-11T12:49:42Z</time>
      </trkpt>
      <trkpt lat="43.64767" lon="2.36337">
        <ele>580.750854</ele>
        <time>2015-11-11T12:49:54Z</time>
      </trkpt>
      <trkpt lat="43.64764" lon="2.36363">
        <ele>581.946655</ele>
        <time>2015-11-11T12:50:06Z</time>
      </trkpt>
      <trkpt lat="43.64754" lon="2.3639">
        <ele>582.86615</ele>
        <time>2015-11-11T12:50:16Z</time>
      </trkpt>
      <trkpt lat="43.64735" lon="2.36473">
        <ele>586.97998</ele>
        <time>2015-11-11T12:50:42Z</time>
      </trkpt>
      <trkpt lat="43.64722" lon="2.36498">
        <ele>587.421204</ele>
        <time>2015-11-11T12:50:52Z</time>
      </trkpt>
      <trkpt lat="43.647" lon="2.36551">
        <ele>585.816223</ele>
        <time>2015-11-11T12:51:04Z</time>
      </trkpt>
      <trkpt lat="43.64672" lon="2.3659">
        <ele>583.443237</ele>
        <time>2015-11-11T12:51:18Z</time>
      </trkpt>
      <trkpt lat="43.64622" lon="2.36633">
        <ele>584.017151</ele>
        <time>2015-11-11T12:51:42Z</time>
      </trkpt>
      <trkpt lat="43.64597" lon="2.3667">
        <ele>587.55365</ele>
        <time>2015-11-11T12:52:18Z</time>
      </trkpt>
      <trkpt lat="43.64586" lon="2.36692">
        <ele>590.154663</ele>
        <time>2015-11-11T12:52:32Z</time>
      </trkpt>
      <trkpt lat="43.64544" lon="2.36847">
        <ele>609.543274</ele>
        <time>2015-11-11T12:54:28Z</time>
      </trkpt>
      <trkpt lat="43.64538" lon="2.369">
        <ele>611.97052</ele>
        <time>2015-11-11T12:54:48Z</time>
      </trkpt>
      <trkpt lat="43.64457" lon="2.36913">
        <ele>612.2995</ele>
        <time>2015-11-11T12:55:24Z</time>
      </trkpt>
      <trkpt lat="43.64439" lon="2.36913">
        <ele>611.148071</ele>
        <time>2015-11-11T12:55:30Z</time>
      </trkpt>
      <trkpt lat="43.64432" lon="2.36869">
        <ele>607.827515</ele>
        <time>2015-11-11T12:55:36Z</time>
      </trkpt>
      <trkpt lat="43.64435" lon="2.36839">
        <ele>607.037476</ele>
        <time>2015-11-11T12:55:42Z</time>
      </trkpt>
      <trkpt lat="43.64422" lon="2.36816">
        <ele>605.20752</ele>
        <time>2015-11-11T12:55:46Z</time>
      </trkpt>
      <trkpt lat="43.64405" lon="2.36804">
        <ele>602.20874</ele>
        <time>2015-11-11T12:55:52Z</time>
      </trkpt>
      <trkpt lat="43.64366" lon="2.36828">
        <ele>596.271851</ele>
        <time>2015-11-11T12:56:04Z</time>
      </trkpt>
      <trkpt lat="43.64343" lon="2.36818">
        <ele>592.224487</ele>
        <time>2015-11-11T12:56:10Z</time>
      </trkpt>
      <trkpt lat="43.64323" lon="2.3676">
        <ele>587.526001</ele>
        <time>2015-11-11T12:56:20Z</time>
      </trkpt>
      <trkpt lat="43.64289" lon="2.36717">
        <ele>580.693115</ele>
        <time>2015-11-11T12:56:28Z</time>
      </trkpt>
      <trkpt lat="43.64279" lon="2.36656">
        <ele>578.558105</ele>
        <time>2015-11-11T12:56:36Z</time>
      </trkpt>
      <trkpt lat="43.64281" lon="2.3663">
        <ele>578.746216</ele>
        <time>2015-11-11T12:56:38Z</time>
      </trkpt>
      <trkpt lat="43.64295" lon="2.36549">
        <ele>576.083557</ele>
        <time>2015-11-11T12:56:46Z</time>
      </trkpt>
      <trkpt lat="43.64306" lon="2.36507">
        <ele>571.739502</ele>
        <time>2015-11-11T12:56:50Z</time>
      </trkpt>
      <trkpt lat="43.64292" lon="2.36489">
        <ele>568.430237</ele>
        <time>2015-11-11T12:56:56Z</time>
      </trkpt>
      <trkpt lat="43.64273" lon="2.36485">
        <ele>566.160522</ele>
        <time>2015-11-11T12:57:02Z</time>
      </trkpt>
      <trkpt lat="43.64254" lon="2.36473">
        <ele>563.272278</ele>
        <time>2015-11-11T12:57:08Z</time>
      </trkpt>
      <trkpt lat="43.64228" lon="2.36477">
        <ele>561.177734</ele>
        <time>2015-11-11T12:57:16Z</time>
      </trkpt>
      <trkpt lat="43.6421" lon="2.36469">
        <ele>559.478516</ele>
        <time>2015-11-11T12:57:20Z</time>
      </trkpt>
      <trkpt lat="43.64189" lon="2.36467">
        <ele>558.693726</ele>
        <time>2015-11-11T12:57:28Z</time>
      </trkpt>
      <trkpt lat="43.6415" lon="2.36483">
        <ele>561.158569</ele>
        <time>2015-11-11T12:57:40Z</time>
      </trkpt>
      <trkpt lat="43.64124" lon="2.36468">
        <ele>562.947998</ele>
        <time>2015-11-11T12:57:46Z</time>
      </trkpt>
      <trkpt lat="43.64075" lon="2.36454">
        <ele>565.357971</ele>
        <time>2015-11-11T12:57:54Z</time>
      </trkpt>
      <trkpt lat="43.64057" lon="2.36461">
        <ele>566.176819</ele>
        <time>2015-11-11T12:57:58Z</time>
      </trkpt>
      <trkpt lat="43.64036" lon="2.36476">
        <ele>565.828552</ele>
        <time>2015-11-11T12:58:04Z</time>
      </trkpt>
      <trkpt lat="43.64017" lon="2.36473">
        <ele>564.061279</ele>
        <time>2015-11-11T12:58:08Z</time>
      </trkpt>
      <trkpt lat="43.63999" lon="2.36498">
        <ele>564.271851</ele>
        <time>2015-11-11T12:58:14Z</time>
      </trkpt>
      <trkpt lat="43.63993" lon="2.36537">
        <ele>567.879761</ele>
        <time>2015-11-11T12:58:20Z</time>
      </trkpt>
      <trkpt lat="43.63997" lon="2.36567">
        <ele>572.257507</ele>
        <time>2015-11-11T12:58:26Z</time>
      </trkpt>
      <trkpt lat="43.64006" lon="2.36593">
        <ele>576.592468</ele>
        <time>2015-11-11T12:58:34Z</time>
      </trkpt>
      <trkpt lat="43.63997" lon="2.36618">
        <ele>577.244995</ele>
        <time>2015-11-11T12:58:42Z</time>
      </trkpt>
      <trkpt lat="43.63982" lon="2.36642">
        <ele>576.499207</ele>
        <time>2015-11-11T12:58:50Z</time>
      </trkpt>
      <trkpt lat="43.63953" lon="2.36677">
        <ele>575.151489</ele>
        <time>2015-11-11T12:59:06Z</time>
      </trkpt>
      <trkpt lat="43.63916" lon="2.36702">
        <ele>573.61554</ele>
        <time>2015-11-11T12:59:26Z</time>
      </trkpt>
      <trkpt lat="43.63906" lon="2.36726">
        <ele>574.841309</ele>
        <time>2015-11-11T12:59:36Z</time>
      </trkpt>
      <trkpt lat="43.63916" lon="2.36747">
        <ele>577.438171</ele>
        <time>2015-11-11T12:59:48Z</time>
      </trkpt>
      <trkpt lat="43.63948" lon="2.36773">
        <ele>583.648743</ele>
        <time>2015-11-11T13:00:16Z</time>
      </trkpt>
      <trkpt lat="43.63968" lon="2.36782">
        <ele>588.353943</ele>
        <time>2015-11-11T13:00:30Z</time>
      </trkpt>
      <trkpt lat="43.64025" lon="2.36778">
        <ele>594.978271</ele>
        <time>2015-11-11T13:01:14Z</time>
      </trkpt>
      <trkpt lat="43.64039" lon="2.36794">
        <ele>596.148132</ele>
        <time>2015-11-11T13:01:24Z</time>
      </trkpt>
      <trkpt lat="43.64041" lon="2.36819">
        <ele>598.472534</ele>
        <time>2015-11-11T13:01:38Z</time>
      </trkpt>
      <trkpt lat="43.64029" lon="2.36846">
        <ele>599.684998</ele>
        <time>2015-11-11T13:01:54Z</time>
      </trkpt>
      <trkpt lat="43.64014" lon="2.36867">
        <ele>600.388855</ele>
        <time>2015-11-11T13:02:06Z</time>
      </trkpt>
      <trkpt lat="43.6401" lon="2.36897">
        <ele>600.513855</ele>
        <time>2015-11-11T13:02:20Z</time>
      </trkpt>
      <trkpt lat="43.63997" lon="2.36948">
        <ele>600.764038</ele>
        <time>2015-11-11T13:02:40Z</time>
      </trkpt>
      <trkpt lat="43.63992" lon="2.37008">
        <ele>601.236755</ele>
        <time>2015-11-11T13:02:56Z</time>
      </trkpt>
      <trkpt lat="43.63993" lon="2.37086">
        <ele>603.130859</ele>
        <time>2015-11-11T13:03:18Z</time>
      </trkpt>
      <trkpt lat="43.64" lon="2.37114">
        <ele>603.769775</ele>
        <time>2015-11-11T13:03:22Z</time>
      </trkpt>
      <trkpt lat="43.64003" lon="2.37148">
        <ele>603.756042</ele>
        <time>2015-11-11T13:03:26Z</time>
      </trkpt>
      <trkpt lat="43.64001" lon="2.37186">
        <ele>603.318726</ele>
        <time>2015-11-11T13:03:30Z</time>
      </trkpt>
      <trkpt lat="43.64004" lon="2.37218">
        <ele>602.923767</ele>
        <time>2015-11-11T13:03:34Z</time>
      </trkpt>
      <trkpt lat="43.64021" lon="2.37231">
        <ele>603.3302</ele>
        <time>2015-11-11T13:03:38Z</time>
      </trkpt>
      <trkpt lat="43.64076" lon="2.37308">
        <ele>602.682068</ele>
        <time>2015-11-11T13:04:46Z</time>
      </trkpt>
      <trkpt lat="43.64086" lon="2.37337">
        <ele>602.451965</ele>
        <time>2015-11-11T13:04:54Z</time>
      </trkpt>
      <trkpt lat="43.64107" lon="2.37445">
        <ele>601.632507</ele>
        <time>2015-11-11T13:05:18Z</time>
      </trkpt>
      <trkpt lat="43.64129" lon="2.37509">
        <ele>601.651733</ele>
        <time>2015-11-11T13:05:28Z</time>
      </trkpt>
      <trkpt lat="43.64128" lon="2.3754">
        <ele>601.856262</ele>
        <time>2015-11-11T13:05:34Z</time>
      </trkpt>
      <trkpt lat="43.64088" lon="2.376">
        <ele>601.785095</ele>
        <time>2015-11-11T13:05:52Z</time>
      </trkpt>
      <trkpt lat="43.64083" lon="2.37629">
        <ele>602.840027</ele>
        <time>2015-11-11T13:05:58Z</time>
      </trkpt>
      <trkpt lat="43.64087" lon="2.37657">
        <ele>604.04248</ele>
        <time>2015-11-11T13:06:04Z</time>
      </trkpt>
      <trkpt lat="43.64109" lon="2.377">
        <ele>606.45874</ele>
        <time>2015-11-11T13:06:16Z</time>
      </trkpt>
      <trkpt lat="43.64124" lon="2.37766">
        <ele>608.206238</ele>
        <time>2015-11-11T13:06:28Z</time>
      </trkpt>
      <trkpt lat="43.64125" lon="2.37829">
        <ele>609.527283</ele>
        <time>2015-11-11T13:06:40Z</time>
      </trkpt>
      <trkpt lat="43.64106" lon="2.37831">
        <ele>608.89502</ele>
        <time>2015-11-11T13:06:56Z</time>
      </trkpt>
      <trkpt lat="43.64089" lon="2.3785">
        <ele>608.777527</ele>
        <time>2015-11-11T13:07:02Z</time>
      </trkpt>
      <trkpt lat="43.64053" lon="2.37943">
        <ele>609.602783</ele>
        <time>2015-11-11T13:07:26Z</time>
      </trkpt>
      <trkpt lat="43.64034" lon="2.38005">
        <ele>608.236267</ele>
        <time>2015-11-11T13:07:38Z</time>
      </trkpt>
      <trkpt lat="43.64014" lon="2.38105">
        <ele>610.130005</ele>
        <time>2015-11-11T13:07:56Z</time>
      </trkpt>
      <trkpt lat="43.63997" lon="2.38162">
        <ele>614.640686</ele>
        <time>2015-11-11T13:08:08Z</time>
      </trkpt>
      <trkpt lat="43.63975" lon="2.38204">
        <ele>619.464294</ele>
        <time>2015-11-11T13:08:22Z</time>
      </trkpt>
      <trkpt lat="43.63942" lon="2.3824">
        <ele>624.831238</ele>
        <time>2015-11-11T13:08:44Z</time>
      </trkpt>
      <trkpt lat="43.6393" lon="2.38261">
        <ele>627.61499</ele>
        <time>2015-11-11T13:08:52Z</time>
      </trkpt>
      <trkpt lat="43.63912" lon="2.38278">
        <ele>628.495728</ele>
        <time>2015-11-11T13:09:00Z</time>
      </trkpt>
      <trkpt lat="43.63899" lon="2.38304">
        <ele>630.69751</ele>
        <time>2015-11-11T13:09:08Z</time>
      </trkpt>
      <trkpt lat="43.6392" lon="2.38305">
        <ele>633.190002</ele>
        <time>2015-11-11T13:09:42Z</time>
      </trkpt>
      <trkpt lat="43.6394" lon="2.38296">
        <ele>633.02002</ele>
        <time>2015-11-11T13:09:54Z</time>
      </trkpt>
      <trkpt lat="43.64003" lon="2.38294">
        <ele>633.502319</ele>
        <time>2015-11-11T13:10:18Z</time>
      </trkpt>
      <trkpt lat="43.64065" lon="2.38269">
        <ele>632.411072</ele>
        <time>2015-11-11T13:10:38Z</time>
      </trkpt>
      <trkpt lat="43.64089" lon="2.3827">
        <ele>633.784241</ele>
        <time>2015-11-11T13:10:42Z</time>
      </trkpt>
      <trkpt lat="43.64112" lon="2.38264">
        <ele>634.534973</ele>
        <time>2015-11-11T13:10:46Z</time>
      </trkpt>
      <trkpt lat="43.64136" lon="2.38252">
        <ele>634.630005</ele>
        <time>2015-11-11T13:10:52Z</time>
      </trkpt>
      <trkpt lat="43.64174" lon="2.38226">
        <ele>633.575378</ele>
        <time>2015-11-11T13:11:02Z</time>
      </trkpt>
      <trkpt lat="43.64193" lon="2.38228">
        <ele>634.088257</ele>
        <time>2015-11-11T13:11:08Z</time>
      </trkpt>
      <trkpt lat="43.64218" lon="2.38236">
        <ele>633.471619</ele>
        <time>2015-11-11T13:11:18Z</time>
      </trkpt>
      <trkpt lat="43.64243" lon="2.38234">
        <ele>631.637512</ele>
        <time>2015-11-11T13:11:26Z</time>
      </trkpt>
      <trkpt lat="43.64266" lon="2.38211">
        <ele>629.215515</ele>
        <time>2015-11-11T13:11:30Z</time>
      </trkpt>
      <trkpt lat="43.6429" lon="2.38195">
        <ele>627.607605</ele>
        <time>2015-11-11T13:11:34Z</time>
      </trkpt>
      <trkpt lat="43.64312" lon="2.38163">
        <ele>626.519043</ele>
        <time>2015-11-11T13:11:38Z</time>
      </trkpt>
      <trkpt lat="43.64363" lon="2.38129">
        <ele>626.851135</ele>
        <time>2015-11-11T13:11:48Z</time>
      </trkpt>
      <trkpt lat="43.64376" lon="2.38107">
        <ele>628.449036</ele>
        <time>2015-11-11T13:11:52Z</time>
      </trkpt>
      <trkpt lat="43.64393" lon="2.38118">
        <ele>628.367981</ele>
        <time>2015-11-11T13:11:56Z</time>
      </trkpt>
      <trkpt lat="43.64443" lon="2.38197">
        <ele>624.017761</ele>
        <time>2015-11-11T13:12:08Z</time>
      </trkpt>
      <trkpt lat="43.64485" lon="2.3824">
        <ele>622.593384</ele>
        <time>2015-11-11T13:12:16Z</time>
      </trkpt>
      <trkpt lat="43.64504" lon="2.3827">
        <ele>620.595886</ele>
        <time>2015-11-11T13:12:20Z</time>
      </trkpt>
      <trkpt lat="43.64523" lon="2.38312">
        <ele>616.689453</ele>
        <time>2015-11-11T13:12:24Z</time>
      </trkpt>
      <trkpt lat="43.64562" lon="2.38371">
        <ele>612.210571</ele>
        <time>2015-11-11T13:12:30Z</time>
      </trkpt>
      <trkpt lat="43.64602" lon="2.38405">
        <ele>609.842163</ele>
        <time>2015-11-11T13:12:34Z</time>
      </trkpt>
      <trkpt lat="43.64623" lon="2.38414">
        <ele>609.358276</ele>
        <time>2015-11-11T13:12:36Z</time>
      </trkpt>
      <trkpt lat="43.64643" lon="2.38414">
        <ele>609.275391</ele>
        <time>2015-11-11T13:12:38Z</time>
      </trkpt>
      <trkpt lat="43.64685" lon="2.38397">
        <ele>608.922485</ele>
        <time>2015-11-11T13:12:42Z</time>
      </trkpt>
      <trkpt lat="43.64705" lon="2.38383">
        <ele>608.37616</ele>
        <time>2015-11-11T13:12:44Z</time>
      </trkpt>
      <trkpt lat="43.64775" lon="2.38349">
        <ele>604.164246</ele>
        <time>2015-11-11T13:12:50Z</time>
      </trkpt>
      <trkpt lat="43.64799" lon="2.38348">
        <ele>602.165283</ele>
        <time>2015-11-11T13:12:52Z</time>
      </trkpt>
      <trkpt lat="43.64821" lon="2.38369">
        <ele>600.280457</ele>
        <time>2015-11-11T13:12:54Z</time>
      </trkpt>
      <trkpt lat="43.64836" lon="2.38392">
        <ele>599.242493</ele>
        <time>2015-11-11T13:12:56Z</time>
      </trkpt>
      <trkpt lat="43.64844" lon="2.3842">
        <ele>598.717529</ele>
        <time>2015-11-11T13:12:58Z</time>
      </trkpt>
      <trkpt lat="43.64848" lon="2.38475">
        <ele>598.038574</ele>
        <time>2015-11-11T13:13:04Z</time>
      </trkpt>
      <trkpt lat="43.6483" lon="2.38479">
        <ele>598.860413</ele>
        <time>2015-11-11T13:13:24Z</time>
      </trkpt>
      <trkpt lat="43.64815" lon="2.38509">
        <ele>599.140564</ele>
        <time>2015-11-11T13:13:32Z</time>
      </trkpt>
      <trkpt lat="43.64795" lon="2.38519">
        <ele>600.038208</ele>
        <time>2015-11-11T13:13:38Z</time>
      </trkpt>
      <trkpt lat="43.64775" lon="2.38524">
        <ele>600.877808</ele>
        <time>2015-11-11T13:13:44Z</time>
      </trkpt>
      <trkpt lat="43.64761" lon="2.3854">
        <ele>600.680664</ele>
        <time>2015-11-11T13:13:48Z</time>
      </trkpt>
      <trkpt lat="43.64722" lon="2.38545">
        <ele>601.609131</ele>
        <time>2015-11-11T13:14:28Z</time>
      </trkpt>
      <trkpt lat="43.64703" lon="2.38555">
        <ele>602.576355</ele>
        <time>2015-11-11T13:14:36Z</time>
      </trkpt>
      <trkpt lat="43.64622" lon="2.38553">
        <ele>604.28125</ele>
        <time>2015-11-11T13:15:12Z</time>
      </trkpt>
      <trkpt lat="43.64603" lon="2.38556">
        <ele>604.330811</ele>
        <time>2015-11-11T13:15:36Z</time>
      </trkpt>
      <trkpt lat="43.64587" lon="2.38539">
        <ele>604.22998</ele>
        <time>2015-11-11T13:15:52Z</time>
      </trkpt>
      <trkpt lat="43.64576" lon="2.38564">
        <ele>604.269958</ele>
        <time>2015-11-11T13:16:30Z</time>
      </trkpt>
      <trkpt lat="43.64574" lon="2.38659">
        <ele>605.576477</ele>
        <time>2015-11-11T13:16:48Z</time>
      </trkpt>
      <trkpt lat="43.64578" lon="2.38685">
        <ele>606.964722</ele>
        <time>2015-11-11T13:16:52Z</time>
      </trkpt>
      <trkpt lat="43.64572" lon="2.38711">
        <ele>607.910767</ele>
        <time>2015-11-11T13:16:58Z</time>
      </trkpt>
      <trkpt lat="43.64555" lon="2.38759">
        <ele>607.815002</ele>
        <time>2015-11-11T13:17:58Z</time>
      </trkpt>
      <trkpt lat="43.64542" lon="2.38783">
        <ele>608.009521</ele>
        <time>2015-11-11T13:18:04Z</time>
      </trkpt>
      <trkpt lat="43.64532" lon="2.38812">
        <ele>608.398743</ele>
        <time>2015-11-11T13:18:16Z</time>
      </trkpt>
      <trkpt lat="43.64518" lon="2.38835">
        <ele>607.861267</ele>
        <time>2015-11-11T13:18:26Z</time>
      </trkpt>
      <trkpt lat="43.64508" lon="2.38857">
        <ele>607.911011</ele>
        <time>2015-11-11T13:18:36Z</time>
      </trkpt>
      <trkpt lat="43.64493" lon="2.38872">
        <ele>607.465088</ele>
        <time>2015-11-11T13:18:46Z</time>
      </trkpt>
      <trkpt lat="43.64466" lon="2.38912">
        <ele>607.800842</ele>
        <time>2015-11-11T13:19:00Z</time>
      </trkpt>
      <trkpt lat="43.64428" lon="2.38936">
        <ele>608.387512</ele>
        <time>2015-11-11T13:19:10Z</time>
      </trkpt>
      <trkpt lat="43.64365" lon="2.38932">
        <ele>606.772705</ele>
        <time>2015-11-11T13:19:32Z</time>
      </trkpt>
      <trkpt lat="43.64349" lon="2.38951">
        <ele>607.902344</ele>
        <time>2015-11-11T13:19:40Z</time>
      </trkpt>
      <trkpt lat="43.64275" lon="2.38955">
        <ele>609.326599</ele>
        <time>2015-11-11T13:22:34Z</time>
      </trkpt>
      <trkpt lat="43.64257" lon="2.38972">
        <ele>610.490845</ele>
        <time>2015-11-11T13:22:42Z</time>
      </trkpt>
      <trkpt lat="43.64233" lon="2.39012">
        <ele>612.587097</ele>
        <time>2015-11-11T13:23:00Z</time>
      </trkpt>
      <trkpt lat="43.64225" lon="2.3904">
        <ele>613.630981</ele>
        <time>2015-11-11T13:23:10Z</time>
      </trkpt>
      <trkpt lat="43.64222" lon="2.39096">
        <ele>617.130005</ele>
        <time>2015-11-11T13:23:32Z</time>
      </trkpt>
      <trkpt lat="43.64204" lon="2.39229">
        <ele>629.27179</ele>
        <time>2015-11-11T13:24:52Z</time>
      </trkpt>
      <trkpt lat="43.64209" lon="2.39253">
        <ele>631.900696</ele>
        <time>2015-11-11T13:25:10Z</time>
      </trkpt>
      <trkpt lat="43.64225" lon="2.39306">
        <ele>636.789368</ele>
        <time>2015-11-11T13:25:36Z</time>
      </trkpt>
      <trkpt lat="43.64237" lon="2.39327">
        <ele>638.207092</ele>
        <time>2015-11-11T13:25:44Z</time>
      </trkpt>
      <trkpt lat="43.64251" lon="2.39374">
        <ele>641.182129</ele>
        <time>2015-11-11T13:26:10Z</time>
      </trkpt>
      <trkpt lat="43.64256" lon="2.39399">
        <ele>642.496887</ele>
        <time>2015-11-11T13:26:22Z</time>
      </trkpt>
      <trkpt lat="43.64258" lon="2.39449">
        <ele>644.511475</ele>
        <time>2015-11-11T13:26:50Z</time>
      </trkpt>
      <trkpt lat="43.64254" lon="2.39474">
        <ele>645.764221</ele>
        <time>2015-11-11T13:27:02Z</time>
      </trkpt>
      <trkpt lat="43.64244" lon="2.39497">
        <ele>647.358948</ele>
        <time>2015-11-11T13:27:10Z</time>
      </trkpt>
      <trkpt lat="43.64233" lon="2.39555">
        <ele>650.162476</ele>
        <time>2015-11-11T13:27:34Z</time>
      </trkpt>
      <trkpt lat="43.64222" lon="2.39577">
        <ele>652.356506</ele>
        <time>2015-11-11T13:27:42Z</time>
      </trkpt>
      <trkpt lat="43.64207" lon="2.39597">
        <ele>655.396851</ele>
        <time>2015-11-11T13:27:48Z</time>
      </trkpt>
      <trkpt lat="43.64193" lon="2.39625">
        <ele>658.717102</ele>
        <time>2015-11-11T13:27:54Z</time>
      </trkpt>
      <trkpt lat="43.64187" lon="2.39705">
        <ele>660.595947</ele>
        <time>2015-11-11T13:28:08Z</time>
      </trkpt>
      <trkpt lat="43.64173" lon="2.3977">
        <ele>660.41803</ele>
        <time>2015-11-11T13:28:20Z</time>
      </trkpt>
      <trkpt lat="43.64177" lon="2.39797">
        <ele>660.731262</ele>
        <time>2015-11-11T13:28:28Z</time>
      </trkpt>
      <trkpt lat="43.64175" lon="2.39829">
        <ele>660.950806</ele>
        <time>2015-11-11T13:28:36Z</time>
      </trkpt>
      <trkpt lat="43.64168" lon="2.39857">
        <ele>661.157471</ele>
        <time>2015-11-11T13:28:48Z</time>
      </trkpt>
      <trkpt lat="43.6408" lon="2.40008">
        <ele>661.577515</ele>
        <time>2015-11-11T13:29:28Z</time>
      </trkpt>
      <trkpt lat="43.64019" lon="2.40021">
        <ele>660.382568</ele>
        <time>2015-11-11T13:29:50Z</time>
      </trkpt>
      <trkpt lat="43.64" lon="2.40034">
        <ele>661.159546</ele>
        <time>2015-11-11T13:29:58Z</time>
      </trkpt>
      <trkpt lat="43.63983" lon="2.40053">
        <ele>661.787231</ele>
        <time>2015-11-11T13:30:04Z</time>
      </trkpt>
      <trkpt lat="43.63926" lon="2.40139">
        <ele>661.953857</ele>
        <time>2015-11-11T13:30:20Z</time>
      </trkpt>
      <trkpt lat="43.63906" lon="2.40218">
        <ele>665.336914</ele>
        <time>2015-11-11T13:30:42Z</time>
      </trkpt>
      <trkpt lat="43.63888" lon="2.40272">
        <ele>666.150696</ele>
        <time>2015-11-11T13:31:00Z</time>
      </trkpt>
      <trkpt lat="43.63881" lon="2.40334">
        <ele>666.958435</ele>
        <time>2015-11-11T13:31:12Z</time>
      </trkpt>
      <trkpt lat="43.63874" lon="2.4036">
        <ele>665.641174</ele>
        <time>2015-11-11T13:31:16Z</time>
      </trkpt>
      <trkpt lat="43.63869" lon="2.40418">
        <ele>663.152832</ele>
        <time>2015-11-11T13:31:24Z</time>
      </trkpt>
      <trkpt lat="43.63869" lon="2.4045">
        <ele>661.548706</ele>
        <time>2015-11-11T13:31:28Z</time>
      </trkpt>
      <trkpt lat="43.63905" lon="2.40502">
        <ele>664.141785</ele>
        <time>2015-11-11T13:31:38Z</time>
      </trkpt>
      <trkpt lat="43.63884" lon="2.40516">
        <ele>660.246094</ele>
        <time>2015-11-11T13:31:44Z</time>
      </trkpt>
      <trkpt lat="43.63871" lon="2.40548">
        <ele>656.389526</ele>
        <time>2015-11-11T13:31:48Z</time>
      </trkpt>
      <trkpt lat="43.63871" lon="2.40585">
        <ele>655.480164</ele>
        <time>2015-11-11T13:31:52Z</time>
      </trkpt>
      <trkpt lat="43.63879" lon="2.40608">
        <ele>656.540771</ele>
        <time>2015-11-11T13:31:56Z</time>
      </trkpt>
      <trkpt lat="43.63878" lon="2.40634">
        <ele>656.067383</ele>
        <time>2015-11-11T13:32:04Z</time>
      </trkpt>
      <trkpt lat="43.63861" lon="2.40646">
        <ele>654.661743</ele>
        <time>2015-11-11T13:32:22Z</time>
      </trkpt>
      <trkpt lat="43.63836" lon="2.40689">
        <ele>658.09906</ele>
        <time>2015-11-11T13:32:46Z</time>
      </trkpt>
      <trkpt lat="43.63829" lon="2.40742">
        <ele>662.775024</ele>
        <time>2015-11-11T13:33:18Z</time>
      </trkpt>
      <trkpt lat="43.6382" lon="2.40764">
        <ele>663.641907</ele>
        <time>2015-11-11T13:33:32Z</time>
      </trkpt>
      <trkpt lat="43.63829" lon="2.4079">
        <ele>666.392517</ele>
        <time>2015-11-11T13:33:52Z</time>
      </trkpt>
      <trkpt lat="43.6384" lon="2.40813">
        <ele>669.046997</ele>
        <time>2015-11-11T13:34:06Z</time>
      </trkpt>
      <trkpt lat="43.63854" lon="2.40831">
        <ele>671.846252</ele>
        <time>2015-11-11T13:34:18Z</time>
      </trkpt>
      <trkpt lat="43.63857" lon="2.40862">
        <ele>672.942139</ele>
        <time>2015-11-11T13:34:30Z</time>
      </trkpt>
      <trkpt lat="43.63855" lon="2.40893">
        <ele>673.200378</ele>
        <time>2015-11-11T13:34:38Z</time>
      </trkpt>
      <trkpt lat="43.63849" lon="2.4092">
        <ele>671.05127</ele>
        <time>2015-11-11T13:34:42Z</time>
      </trkpt>
      <trkpt lat="43.63869" lon="2.40974">
        <ele>671.735168</ele>
        <time>2015-11-11T13:34:52Z</time>
      </trkpt>
      <trkpt lat="43.63874" lon="2.41044">
        <ele>669.832092</ele>
        <time>2015-11-11T13:35:00Z</time>
      </trkpt>
      <trkpt lat="43.63865" lon="2.41085">
        <ele>668.289978</ele>
        <time>2015-11-11T13:35:04Z</time>
      </trkpt>
      <trkpt lat="43.63869" lon="2.41125">
        <ele>667.147522</ele>
        <time>2015-11-11T13:35:08Z</time>
      </trkpt>
      <trkpt lat="43.63884" lon="2.41157">
        <ele>667.19873</ele>
        <time>2015-11-11T13:35:12Z</time>
      </trkpt>
      <trkpt lat="43.6392" lon="2.41275">
        <ele>670.929993</ele>
        <time>2015-11-11T13:35:30Z</time>
      </trkpt>
      <trkpt lat="43.63933" lon="2.41332">
        <ele>674.282532</ele>
        <time>2015-11-11T13:35:46Z</time>
      </trkpt>
      <trkpt lat="43.63906" lon="2.41374">
        <ele>675.463562</ele>
        <time>2015-11-11T13:36:32Z</time>
      </trkpt>
      <trkpt lat="43.6389" lon="2.41389">
        <ele>675.459106</ele>
        <time>2015-11-11T13:36:48Z</time>
      </trkpt>
      <trkpt lat="43.63859" lon="2.41433">
        <ele>675.648743</ele>
        <time>2015-11-11T13:37:08Z</time>
      </trkpt>
      <trkpt lat="43.63838" lon="2.41484">
        <ele>676.44928</ele>
        <time>2015-11-11T13:37:26Z</time>
      </trkpt>
      <trkpt lat="43.63831" lon="2.41509">
        <ele>677.202271</ele>
        <time>2015-11-11T13:37:34Z</time>
      </trkpt>
      <trkpt lat="43.63827" lon="2.41594">
        <ele>680.494995</ele>
        <time>2015-11-11T13:38:02Z</time>
      </trkpt>
      <trkpt lat="43.6383" lon="2.41622">
        <ele>681.26123</ele>
        <time>2015-11-11T13:38:10Z</time>
      </trkpt>
      <trkpt lat="43.63828" lon="2.4165">
        <ele>681.592651</ele>
        <time>2015-11-11T13:38:16Z</time>
      </trkpt>
      <trkpt lat="43.63807" lon="2.41756">
        <ele>680.565918</ele>
        <time>2015-11-11T13:38:40Z</time>
      </trkpt>
      <trkpt lat="43.63797" lon="2.41779">
        <ele>679.891663</ele>
        <time>2015-11-11T13:38:48Z</time>
      </trkpt>
      <trkpt lat="43.6379" lon="2.41806">
        <ele>679.764771</ele>
        <time>2015-11-11T13:38:54Z</time>
      </trkpt>
      <trkpt lat="43.63788" lon="2.41832">
        <ele>680.130371</ele>
        <time>2015-11-11T13:39:00Z</time>
      </trkpt>
      <trkpt lat="43.63772" lon="2.41884">
        <ele>680.786316</ele>
        <time>2015-11-11T13:39:14Z</time>
      </trkpt>
      <trkpt lat="43.63752" lon="2.41936">
        <ele>681.645386</ele>
        <time>2015-11-11T13:39:30Z</time>
      </trkpt>
      <trkpt lat="43.63745" lon="2.41963">
        <ele>682.248779</ele>
        <time>2015-11-11T13:39:36Z</time>
      </trkpt>
      <trkpt lat="43.63737" lon="2.42015">
        <ele>682.862671</ele>
        <time>2015-11-11T13:39:50Z</time>
      </trkpt>
      <trkpt lat="43.63707" lon="2.42092">
        <ele>683.497498</ele>
        <time>2015-11-11T13:40:12Z</time>
      </trkpt>
      <trkpt lat="43.63696" lon="2.42157">
        <ele>682.222046</ele>
        <time>2015-11-11T13:40:22Z</time>
      </trkpt>
      <trkpt lat="43.63677" lon="2.42226">
        <ele>680.522522</ele>
        <time>2015-11-11T13:40:30Z</time>
      </trkpt>
      <trkpt lat="43.63658" lon="2.42245">
        <ele>680.216248</ele>
        <time>2015-11-11T13:40:34Z</time>
      </trkpt>
      <trkpt lat="43.63638" lon="2.42275">
        <ele>679.900574</ele>
        <time>2015-11-11T13:40:38Z</time>
      </trkpt>
      <trkpt lat="43.63576" lon="2.42343">
        <ele>678.277466</ele>
        <time>2015-11-11T13:40:50Z</time>
      </trkpt>
      <trkpt lat="43.6352" lon="2.42438">
        <ele>677.783813</ele>
        <time>2015-11-11T13:41:02Z</time>
      </trkpt>
      <trkpt lat="43.63505" lon="2.4247">
        <ele>677.647522</ele>
        <time>2015-11-11T13:41:06Z</time>
      </trkpt>
      <trkpt lat="43.63489" lon="2.42538">
        <ele>677.667236</ele>
        <time>2015-11-11T13:41:14Z</time>
      </trkpt>
      <trkpt lat="43.63509" lon="2.42539">
        <ele>679.241028</ele>
        <time>2015-11-11T13:41:28Z</time>
      </trkpt>
      <trkpt lat="43.63528" lon="2.42533">
        <ele>680.409973</ele>
        <time>2015-11-11T13:41:54Z</time>
      </trkpt>
      <trkpt lat="43.63588" lon="2.42526">
        <ele>682</ele>
        <time>2015-11-11T13:42:32Z</time>
      </trkpt>
      <trkpt lat="43.63606" lon="2.42511">
        <ele>682</ele>
        <time>2015-11-11T13:42:42Z</time>
      </trkpt>
      <trkpt lat="43.63624" lon="2.42518">
        <ele>682</ele>
        <time>2015-11-11T13:42:52Z</time>
      </trkpt>
      <trkpt lat="43.63638" lon="2.42537">
        <ele>682</ele>
        <time>2015-11-11T13:43:02Z</time>
      </trkpt>
      <trkpt lat="43.63659" lon="2.42547">
        <ele>682</ele>
        <time>2015-11-11T13:43:12Z</time>
      </trkpt>
      <trkpt lat="43.637" lon="2.42557">
        <ele>682</ele>
        <time>2015-11-11T13:43:28Z</time>
      </trkpt>
      <trkpt lat="43.6376" lon="2.42557">
        <ele>682</ele>
        <time>2015-11-11T13:43:46Z</time>
      </trkpt>
      <trkpt lat="43.63811" lon="2.42565">
        <ele>682.492493</ele>
        <time>2015-11-11T13:43:56Z</time>
      </trkpt>
      <trkpt lat="43.63841" lon="2.42575">
        <ele>682.68573</ele>
        <time>2015-11-11T13:44:00Z</time>
      </trkpt>
      <trkpt lat="43.63865" lon="2.42594">
        <ele>681.877319</ele>
        <time>2015-11-11T13:44:04Z</time>
      </trkpt>
      <trkpt lat="43.63887" lon="2.42603">
        <ele>680.509705</ele>
        <time>2015-11-11T13:44:08Z</time>
      </trkpt>
      <trkpt lat="43.63906" lon="2.42618">
        <ele>678.20636</ele>
        <time>2015-11-11T13:44:12Z</time>
      </trkpt>
      <trkpt lat="43.63925" lon="2.42623">
        <ele>675.600586</ele>
        <time>2015-11-11T13:44:18Z</time>
      </trkpt>
      <trkpt lat="43.63956" lon="2.42547">
        <ele>671.301819</ele>
        <time>2015-11-11T13:44:30Z</time>
      </trkpt>
      <trkpt lat="43.64003" lon="2.42511">
        <ele>665.539978</ele>
        <time>2015-11-11T13:44:38Z</time>
      </trkpt>
      <trkpt lat="43.64017" lon="2.42484">
        <ele>665.422485</ele>
        <time>2015-11-11T13:44:42Z</time>
      </trkpt>
      <trkpt lat="43.64026" lon="2.4245">
        <ele>667.371155</ele>
        <time>2015-11-11T13:44:46Z</time>
      </trkpt>
      <trkpt lat="43.64055" lon="2.42397">
        <ele>668.261902</ele>
        <time>2015-11-11T13:44:54Z</time>
      </trkpt>
      <trkpt lat="43.64055" lon="2.4237">
        <ele>669.017517</ele>
        <time>2015-11-11T13:44:58Z</time>
      </trkpt>
      <trkpt lat="43.64049" lon="2.42344">
        <ele>668.977478</ele>
        <time>2015-11-11T13:45:02Z</time>
      </trkpt>
      <trkpt lat="43.64049" lon="2.42319">
        <ele>668.48999</ele>
        <time>2015-11-11T13:45:06Z</time>
      </trkpt>
      <trkpt lat="43.64056" lon="2.42292">
        <ele>665.816223</ele>
        <time>2015-11-11T13:45:12Z</time>
      </trkpt>
      <trkpt lat="43.64049" lon="2.42257">
        <ele>663.496582</ele>
        <time>2015-11-11T13:45:18Z</time>
      </trkpt>
      <trkpt lat="43.64028" lon="2.42234">
        <ele>663.569519</ele>
        <time>2015-11-11T13:45:22Z</time>
      </trkpt>
      <trkpt lat="43.64014" lon="2.42201">
        <ele>662.284607</ele>
        <time>2015-11-11T13:45:28Z</time>
      </trkpt>
      <trkpt lat="43.64014" lon="2.4217">
        <ele>661.98999</ele>
        <time>2015-11-11T13:45:32Z</time>
      </trkpt>
      <trkpt lat="43.64033" lon="2.42157">
        <ele>661.13501</ele>
        <time>2015-11-11T13:45:42Z</time>
      </trkpt>
      <trkpt lat="43.64169" lon="2.42138">
        <ele>657.229248</ele>
        <time>2015-11-11T13:46:02Z</time>
      </trkpt>
      <trkpt lat="43.64228" lon="2.42114">
        <ele>655.886475</ele>
        <time>2015-11-11T13:46:10Z</time>
      </trkpt>
      <trkpt lat="43.64258" lon="2.42106">
        <ele>654.798828</ele>
        <time>2015-11-11T13:46:14Z</time>
      </trkpt>
      <trkpt lat="43.64269" lon="2.42129">
        <ele>653.495789</ele>
        <time>2015-11-11T13:46:20Z</time>
      </trkpt>
      <trkpt lat="43.64291" lon="2.42146">
        <ele>655.234985</ele>
        <time>2015-11-11T13:46:26Z</time>
      </trkpt>
      <trkpt lat="43.64312" lon="2.42149">
        <ele>656.23999</ele>
        <time>2015-11-11T13:46:30Z</time>
      </trkpt>
      <trkpt lat="43.64359" lon="2.42139">
        <ele>653.269043</ele>
        <time>2015-11-11T13:46:38Z</time>
      </trkpt>
      <trkpt lat="43.64402" lon="2.42154">
        <ele>652.747498</ele>
        <time>2015-11-11T13:46:46Z</time>
      </trkpt>
      <trkpt lat="43.64418" lon="2.4217">
        <ele>654.221252</ele>
        <time>2015-11-11T13:46:50Z</time>
      </trkpt>
      <trkpt lat="43.64436" lon="2.42178">
        <ele>654.357483</ele>
        <time>2015-11-11T13:46:54Z</time>
      </trkpt>
      <trkpt lat="43.64454" lon="2.42179">
        <ele>653.33252</ele>
        <time>2015-11-11T13:46:58Z</time>
      </trkpt>
      <trkpt lat="43.64473" lon="2.4217">
        <ele>650.862488</ele>
        <time>2015-11-11T13:47:02Z</time>
      </trkpt>
      <trkpt lat="43.64495" lon="2.42175">
        <ele>651.286255</ele>
        <time>2015-11-11T13:47:08Z</time>
      </trkpt>
      <trkpt lat="43.64523" lon="2.42171">
        <ele>649.346252</ele>
        <time>2015-11-11T13:47:14Z</time>
      </trkpt>
      <trkpt lat="43.64552" lon="2.42181">
        <ele>649.02002</ele>
        <time>2015-11-11T13:47:20Z</time>
      </trkpt>
      <trkpt lat="43.6457" lon="2.42196">
        <ele>649.476868</ele>
        <time>2015-11-11T13:47:24Z</time>
      </trkpt>
      <trkpt lat="43.64582" lon="2.42219">
        <ele>650.960022</ele>
        <time>2015-11-11T13:47:28Z</time>
      </trkpt>
      <trkpt lat="43.64619" lon="2.42255">
        <ele>652.361755</ele>
        <time>2015-11-11T13:47:38Z</time>
      </trkpt>
      <trkpt lat="43.64641" lon="2.42268">
        <ele>653.233521</ele>
        <time>2015-11-11T13:47:44Z</time>
      </trkpt>
      <trkpt lat="43.64662" lon="2.42267">
        <ele>653.381165</ele>
        <time>2015-11-11T13:47:50Z</time>
      </trkpt>
      <trkpt lat="43.64683" lon="2.42259">
        <ele>652.820007</ele>
        <time>2015-11-11T13:47:58Z</time>
      </trkpt>
      <trkpt lat="43.64725" lon="2.42263">
        <ele>655.920654</ele>
        <time>2015-11-11T13:48:12Z</time>
      </trkpt>
      <trkpt lat="43.64742" lon="2.42271">
        <ele>657.210022</ele>
        <time>2015-11-11T13:48:16Z</time>
      </trkpt>
      <trkpt lat="43.64792" lon="2.42275">
        <ele>654.69751</ele>
        <time>2015-11-11T13:48:32Z</time>
      </trkpt>
      <trkpt lat="43.64786" lon="2.42248">
        <ele>651.690674</ele>
        <time>2015-11-11T13:48:48Z</time>
      </trkpt>
      <trkpt lat="43.64705" lon="2.42204">
        <ele>644.896912</ele>
        <time>2015-11-11T13:49:00Z</time>
      </trkpt>
      <trkpt lat="43.64653" lon="2.4219">
        <ele>641.37323</ele>
        <time>2015-11-11T13:49:06Z</time>
      </trkpt>
      <trkpt lat="43.64632" lon="2.42163">
        <ele>639.51239</ele>
        <time>2015-11-11T13:49:10Z</time>
      </trkpt>
      <trkpt lat="43.64614" lon="2.4213">
        <ele>637.318787</ele>
        <time>2015-11-11T13:49:14Z</time>
      </trkpt>
      <trkpt lat="43.64553" lon="2.42071">
        <ele>632.952087</ele>
        <time>2015-11-11T13:49:26Z</time>
      </trkpt>
      <trkpt lat="43.64567" lon="2.42052">
        <ele>632.135559</ele>
        <time>2015-11-11T13:49:36Z</time>
      </trkpt>
      <trkpt lat="43.64576" lon="2.42031">
        <ele>631.085205</ele>
        <time>2015-11-11T13:49:48Z</time>
      </trkpt>
      <trkpt lat="43.64622" lon="2.42028">
        <ele>628.862305</ele>
        <time>2015-11-11T13:50:08Z</time>
      </trkpt>
      <trkpt lat="43.64651" lon="2.42031">
        <ele>627.695984</ele>
        <time>2015-11-11T13:50:12Z</time>
      </trkpt>
      <trkpt lat="43.64673" lon="2.42028">
        <ele>626.189514</ele>
        <time>2015-11-11T13:50:16Z</time>
      </trkpt>
      <trkpt lat="43.64681" lon="2.42001">
        <ele>625.013</ele>
        <time>2015-11-11T13:50:24Z</time>
      </trkpt>
      <trkpt lat="43.64694" lon="2.41983">
        <ele>624.629883</ele>
        <time>2015-11-11T13:50:32Z</time>
      </trkpt>
      <trkpt lat="43.64737" lon="2.41973">
        <ele>619.661499</ele>
        <time>2015-11-11T13:50:54Z</time>
      </trkpt>
      <trkpt lat="43.64742" lon="2.41947">
        <ele>620.005554</ele>
        <time>2015-11-11T13:51:04Z</time>
      </trkpt>
      <trkpt lat="43.64759" lon="2.41902">
        <ele>625.002136</ele>
        <time>2015-11-11T13:51:22Z</time>
      </trkpt>
      <trkpt lat="43.64773" lon="2.41851">
        <ele>628.796265</ele>
        <time>2015-11-11T13:51:40Z</time>
      </trkpt>
      <trkpt lat="43.64777" lon="2.41823">
        <ele>631.293335</ele>
        <time>2015-11-11T13:51:48Z</time>
      </trkpt>
      <trkpt lat="43.64802" lon="2.41782">
        <ele>624.913757</ele>
        <time>2015-11-11T13:51:58Z</time>
      </trkpt>
      <trkpt lat="43.64809" lon="2.41719">
        <ele>622.841858</ele>
        <time>2015-11-11T13:52:06Z</time>
      </trkpt>
      <trkpt lat="43.64802" lon="2.41691">
        <ele>624.010803</ele>
        <time>2015-11-11T13:52:10Z</time>
      </trkpt>
      <trkpt lat="43.64809" lon="2.41623">
        <ele>620.264648</ele>
        <time>2015-11-11T13:52:22Z</time>
      </trkpt>
      <trkpt lat="43.64804" lon="2.41593">
        <ele>621.220398</ele>
        <time>2015-11-11T13:52:28Z</time>
      </trkpt>
      <trkpt lat="43.64806" lon="2.41563">
        <ele>621.66156</ele>
        <time>2015-11-11T13:52:36Z</time>
      </trkpt>
      <trkpt lat="43.64819" lon="2.41516">
        <ele>621.784973</ele>
        <time>2015-11-11T13:52:48Z</time>
      </trkpt>
      <trkpt lat="43.64843" lon="2.415">
        <ele>619.473572</ele>
        <time>2015-11-11T13:52:54Z</time>
      </trkpt>
      <trkpt lat="43.64866" lon="2.41506">
        <ele>615.381653</ele>
        <time>2015-11-11T13:53:02Z</time>
      </trkpt>
      <trkpt lat="43.64886" lon="2.41498">
        <ele>614.19635</ele>
        <time>2015-11-11T13:53:08Z</time>
      </trkpt>
      <trkpt lat="43.6491" lon="2.41476">
        <ele>613.580566</ele>
        <time>2015-11-11T13:53:14Z</time>
      </trkpt>
      <trkpt lat="43.64931" lon="2.41451">
        <ele>612.781921</ele>
        <time>2015-11-11T13:53:20Z</time>
      </trkpt>
      <trkpt lat="43.64945" lon="2.41424">
        <ele>610.02301</ele>
        <time>2015-11-11T13:53:24Z</time>
      </trkpt>
      <trkpt lat="43.6496" lon="2.4141">
        <ele>607.431763</ele>
        <time>2015-11-11T13:53:28Z</time>
      </trkpt>
      <trkpt lat="43.64982" lon="2.41398">
        <ele>604.049133</ele>
        <time>2015-11-11T13:53:32Z</time>
      </trkpt>
      <trkpt lat="43.65002" lon="2.4138">
        <ele>599.854614</ele>
        <time>2015-11-11T13:53:38Z</time>
      </trkpt>
      <trkpt lat="43.65022" lon="2.41368">
        <ele>595.708435</ele>
        <time>2015-11-11T13:53:46Z</time>
      </trkpt>
      <trkpt lat="43.65041" lon="2.41382">
        <ele>593.508728</ele>
        <time>2015-11-11T13:53:50Z</time>
      </trkpt>
      <trkpt lat="43.65066" lon="2.4139">
        <ele>590.569763</ele>
        <time>2015-11-11T13:53:54Z</time>
      </trkpt>
      <trkpt lat="43.65092" lon="2.41391">
        <ele>587.174316</ele>
        <time>2015-11-11T13:53:58Z</time>
      </trkpt>
      <trkpt lat="43.65108" lon="2.41373">
        <ele>586.766174</ele>
        <time>2015-11-11T13:54:08Z</time>
      </trkpt>
      <trkpt lat="43.65121" lon="2.41352">
        <ele>588.223694</ele>
        <time>2015-11-11T13:54:22Z</time>
      </trkpt>
      <trkpt lat="43.65126" lon="2.41327">
        <ele>591.472595</ele>
        <time>2015-11-11T13:54:52Z</time>
      </trkpt>
      <trkpt lat="43.6512" lon="2.41276">
        <ele>602.079224</ele>
        <time>2015-11-11T13:55:36Z</time>
      </trkpt>
      <trkpt lat="43.65106" lon="2.4123">
        <ele>608.259705</ele>
        <time>2015-11-11T13:56:46Z</time>
      </trkpt>
      <trkpt lat="43.65081" lon="2.41192">
        <ele>613.397278</ele>
        <time>2015-11-11T13:57:04Z</time>
      </trkpt>
      <trkpt lat="43.6504" lon="2.41193">
        <ele>611.75</ele>
        <time>2015-11-11T13:57:26Z</time>
      </trkpt>
      <trkpt lat="43.65022" lon="2.41188">
        <ele>612.335205</ele>
        <time>2015-11-11T13:57:42Z</time>
      </trkpt>
      <trkpt lat="43.65004" lon="2.41175">
        <ele>613.710754</ele>
        <time>2015-11-11T13:58:03Z</time>
      </trkpt>
      <trkpt lat="43.64986" lon="2.41174">
        <ele>612.835754</ele>
        <time>2015-11-11T13:58:29Z</time>
      </trkpt>
      <trkpt lat="43.64969" lon="2.41164">
        <ele>612.91925</ele>
        <time>2015-11-11T13:59:09Z</time>
      </trkpt>
      <trkpt lat="43.64974" lon="2.41085">
        <ele>621.653625</ele>
        <time>2015-11-11T13:59:59Z</time>
      </trkpt>
      <trkpt lat="43.65029" lon="2.40942">
        <ele>643.406555</ele>
        <time>2015-11-11T14:02:27Z</time>
      </trkpt>
      <trkpt lat="43.65034" lon="2.40917">
        <ele>648.819946</ele>
        <time>2015-11-11T14:03:39Z</time>
      </trkpt>
      <trkpt lat="43.65025" lon="2.40863">
        <ele>658.856506</ele>
        <time>2015-11-11T14:04:17Z</time>
      </trkpt>
      <trkpt lat="43.65017" lon="2.40839">
        <ele>661.926147</ele>
        <time>2015-11-11T14:04:33Z</time>
      </trkpt>
      <trkpt lat="43.6499" lon="2.40797">
        <ele>663.836426</ele>
        <time>2015-11-11T14:04:55Z</time>
      </trkpt>
      <trkpt lat="43.64959" lon="2.4076">
        <ele>661.758606</ele>
        <time>2015-11-11T14:05:17Z</time>
      </trkpt>
      <trkpt lat="43.64934" lon="2.4076">
        <ele>659.486328</ele>
        <time>2015-11-11T14:05:25Z</time>
      </trkpt>
      <trkpt lat="43.64892" lon="2.40796">
        <ele>656.719482</ele>
        <time>2015-11-11T14:05:35Z</time>
      </trkpt>
      <trkpt lat="43.64872" lon="2.40795">
        <ele>660.167419</ele>
        <time>2015-11-11T14:05:43Z</time>
      </trkpt>
      <trkpt lat="43.6486" lon="2.40714">
        <ele>666.421204</ele>
        <time>2015-11-11T14:06:31Z</time>
      </trkpt>
      <trkpt lat="43.64844" lon="2.40703">
        <ele>668.609497</ele>
        <time>2015-11-11T14:06:55Z</time>
      </trkpt>
      <trkpt lat="43.64764" lon="2.40728">
        <ele>666.85437</ele>
        <time>2015-11-11T14:07:37Z</time>
      </trkpt>
      <trkpt lat="43.6472" lon="2.40729">
        <ele>667.128235</ele>
        <time>2015-11-11T14:07:47Z</time>
      </trkpt>
      <trkpt lat="43.64681" lon="2.4075">
        <ele>665.354431</ele>
        <time>2015-11-11T14:07:57Z</time>
      </trkpt>
      <trkpt lat="43.64626" lon="2.40752">
        <ele>669.053345</ele>
        <time>2015-11-11T14:08:45Z</time>
      </trkpt>
      <trkpt lat="43.64605" lon="2.40749">
        <ele>672.25415</ele>
        <time>2015-11-11T14:09:17Z</time>
      </trkpt>
      <trkpt lat="43.64588" lon="2.4076">
        <ele>671.407898</ele>
        <time>2015-11-11T14:09:31Z</time>
      </trkpt>
      <trkpt lat="43.64568" lon="2.4081">
        <ele>669.825012</ele>
        <time>2015-11-11T14:09:47Z</time>
      </trkpt>
      <trkpt lat="43.64557" lon="2.40861">
        <ele>672.65625</ele>
        <time>2015-11-11T14:10:09Z</time>
      </trkpt>
      <trkpt lat="43.64546" lon="2.40881">
        <ele>675.854919</ele>
        <time>2015-11-11T14:10:21Z</time>
      </trkpt>
      <trkpt lat="43.64538" lon="2.40907">
        <ele>678.69165</ele>
        <time>2015-11-11T14:10:37Z</time>
      </trkpt>
      <trkpt lat="43.64524" lon="2.4093">
        <ele>681.456116</ele>
        <time>2015-11-11T14:10:49Z</time>
      </trkpt>
      <trkpt lat="43.64496" lon="2.40961">
        <ele>686.500916</ele>
        <time>2015-11-11T14:11:11Z</time>
      </trkpt>
      <trkpt lat="43.64477" lon="2.40973">
        <ele>686.611572</ele>
        <time>2015-11-11T14:11:21Z</time>
      </trkpt>
      <trkpt lat="43.6446" lon="2.40979">
        <ele>687.526611</ele>
        <time>2015-11-11T14:11:31Z</time>
      </trkpt>
      <trkpt lat="43.64438" lon="2.40981">
        <ele>688.851257</ele>
        <time>2015-11-11T14:11:41Z</time>
      </trkpt>
      <trkpt lat="43.64416" lon="2.40998">
        <ele>687.227905</ele>
        <time>2015-11-11T14:11:47Z</time>
      </trkpt>
      <trkpt lat="43.64371" lon="2.41022">
        <ele>681.692932</ele>
        <time>2015-11-11T14:11:57Z</time>
      </trkpt>
      <trkpt lat="43.64329" lon="2.41005">
        <ele>681.650635</ele>
        <time>2015-11-11T14:12:07Z</time>
      </trkpt>
      <trkpt lat="43.64307" lon="2.40991">
        <ele>683.603394</ele>
        <time>2015-11-11T14:12:15Z</time>
      </trkpt>
      <trkpt lat="43.64282" lon="2.40988">
        <ele>682.987488</ele>
        <time>2015-11-11T14:12:21Z</time>
      </trkpt>
      <trkpt lat="43.64263" lon="2.40976">
        <ele>685.554993</ele>
        <time>2015-11-11T14:12:27Z</time>
      </trkpt>
      <trkpt lat="43.64241" lon="2.40975">
        <ele>685.717529</ele>
        <time>2015-11-11T14:12:35Z</time>
      </trkpt>
      <trkpt lat="43.642" lon="2.40983">
        <ele>688.725525</ele>
        <time>2015-11-11T14:12:51Z</time>
      </trkpt>
      <trkpt lat="43.64188" lon="2.41008">
        <ele>686.421448</ele>
        <time>2015-11-11T14:13:03Z</time>
      </trkpt>
      <trkpt lat="43.64187" lon="2.41043">
        <ele>681.239258</ele>
        <time>2015-11-11T14:13:07Z</time>
      </trkpt>
      <trkpt lat="43.64171" lon="2.4107">
        <ele>679.071533</ele>
        <time>2015-11-11T14:13:11Z</time>
      </trkpt>
      <trkpt lat="43.6412" lon="2.41109">
        <ele>678.459656</ele>
        <time>2015-11-11T14:13:19Z</time>
      </trkpt>
      <trkpt lat="43.64095" lon="2.41123">
        <ele>678.344177</ele>
        <time>2015-11-11T14:13:23Z</time>
      </trkpt>
      <trkpt lat="43.64084" lon="2.411">
        <ele>680.301758</ele>
        <time>2015-11-11T14:13:37Z</time>
      </trkpt>
      <trkpt lat="43.64068" lon="2.4108">
        <ele>681.324036</ele>
        <time>2015-11-11T14:13:51Z</time>
      </trkpt>
      <trkpt lat="43.64054" lon="2.41058">
        <ele>681.892029</ele>
        <time>2015-11-11T14:14:05Z</time>
      </trkpt>
      <trkpt lat="43.64054" lon="2.4103">
        <ele>683.093323</ele>
        <time>2015-11-11T14:14:19Z</time>
      </trkpt>
      <trkpt lat="43.64063" lon="2.41004">
        <ele>684.83667</ele>
        <time>2015-11-11T14:14:33Z</time>
      </trkpt>
      <trkpt lat="43.64074" lon="2.40985">
        <ele>686.587402</ele>
        <time>2015-11-11T14:14:45Z</time>
      </trkpt>
      <trkpt lat="43.64078" lon="2.40954">
        <ele>688.257507</ele>
        <time>2015-11-11T14:14:57Z</time>
      </trkpt>
      <trkpt lat="43.64077" lon="2.40928">
        <ele>689.02002</ele>
        <time>2015-11-11T14:15:07Z</time>
      </trkpt>
      <trkpt lat="43.64098" lon="2.40879">
        <ele>692.349976</ele>
        <time>2015-11-11T14:15:29Z</time>
      </trkpt>
      <trkpt lat="43.64112" lon="2.40856">
        <ele>693.759705</ele>
        <time>2015-11-11T14:15:37Z</time>
      </trkpt>
      <trkpt lat="43.6412" lon="2.4083">
        <ele>694.339417</ele>
        <time>2015-11-11T14:15:43Z</time>
      </trkpt>
      <trkpt lat="43.64135" lon="2.40806">
        <ele>694.147766</ele>
        <time>2015-11-11T14:15:49Z</time>
      </trkpt>
      <trkpt lat="43.64172" lon="2.40765">
        <ele>693.798828</ele>
        <time>2015-11-11T14:16:01Z</time>
      </trkpt>
      <trkpt lat="43.64233" lon="2.40712">
        <ele>692.458679</ele>
        <time>2015-11-11T14:16:17Z</time>
      </trkpt>
      <trkpt lat="43.64254" lon="2.40707">
        <ele>693.331787</ele>
        <time>2015-11-11T14:16:21Z</time>
      </trkpt>
      <trkpt lat="43.6429" lon="2.40709">
        <ele>694.98999</ele>
        <time>2015-11-11T14:16:29Z</time>
      </trkpt>
      <trkpt lat="43.64366" lon="2.40662">
        <ele>691.89624</ele>
        <time>2015-11-11T14:16:53Z</time>
      </trkpt>
      <trkpt lat="43.64385" lon="2.40656">
        <ele>690.673096</ele>
        <time>2015-11-11T14:16:59Z</time>
      </trkpt>
      <trkpt lat="43.64404" lon="2.40636">
        <ele>690.387268</ele>
        <time>2015-11-11T14:17:07Z</time>
      </trkpt>
      <trkpt lat="43.64426" lon="2.40635">
        <ele>690.058899</ele>
        <time>2015-11-11T14:17:13Z</time>
      </trkpt>
      <trkpt lat="43.64442" lon="2.40622">
        <ele>691.282349</ele>
        <time>2015-11-11T14:17:17Z</time>
      </trkpt>
      <trkpt lat="43.64452" lon="2.4065">
        <ele>688.991089</ele>
        <time>2015-11-11T14:17:25Z</time>
      </trkpt>
      <trkpt lat="43.64469" lon="2.40664">
        <ele>687.305542</ele>
        <time>2015-11-11T14:17:35Z</time>
      </trkpt>
      <trkpt lat="43.64506" lon="2.40678">
        <ele>687.321838</ele>
        <time>2015-11-11T14:17:53Z</time>
      </trkpt>
      <trkpt lat="43.64523" lon="2.40669">
        <ele>690.075256</ele>
        <time>2015-11-11T14:18:07Z</time>
      </trkpt>
      <trkpt lat="43.64542" lon="2.40621">
        <ele>697.076477</ele>
        <time>2015-11-11T14:18:37Z</time>
      </trkpt>
      <trkpt lat="43.64538" lon="2.40595">
        <ele>698.828918</ele>
        <time>2015-11-11T14:18:47Z</time>
      </trkpt>
      <trkpt lat="43.64541" lon="2.40566">
        <ele>699.620667</ele>
        <time>2015-11-11T14:18:55Z</time>
      </trkpt>
      <trkpt lat="43.64552" lon="2.40541">
        <ele>699.978821</ele>
        <time>2015-11-11T14:19:01Z</time>
      </trkpt>
      <trkpt lat="43.64578" lon="2.40499">
        <ele>699.924988</ele>
        <time>2015-11-11T14:19:13Z</time>
      </trkpt>
      <trkpt lat="43.64599" lon="2.40486">
        <ele>699.6521</ele>
        <time>2015-11-11T14:19:17Z</time>
      </trkpt>
      <trkpt lat="43.64619" lon="2.40486">
        <ele>698.620483</ele>
        <time>2015-11-11T14:19:23Z</time>
      </trkpt>
      <trkpt lat="43.6464" lon="2.40497">
        <ele>697.180481</ele>
        <time>2015-11-11T14:19:29Z</time>
      </trkpt>
      <trkpt lat="43.64665" lon="2.4049">
        <ele>695.804993</ele>
        <time>2015-11-11T14:19:33Z</time>
      </trkpt>
      <trkpt lat="43.64688" lon="2.40455">
        <ele>694.70752</ele>
        <time>2015-11-11T14:19:37Z</time>
      </trkpt>
      <trkpt lat="43.64712" lon="2.40382">
        <ele>689.949036</ele>
        <time>2015-11-11T14:19:45Z</time>
      </trkpt>
      <trkpt lat="43.64776" lon="2.40236">
        <ele>681.789978</ele>
        <time>2015-11-11T14:20:01Z</time>
      </trkpt>
      <trkpt lat="43.64785" lon="2.40206">
        <ele>680.686829</ele>
        <time>2015-11-11T14:20:05Z</time>
      </trkpt>
      <trkpt lat="43.64804" lon="2.40182">
        <ele>680.496216</ele>
        <time>2015-11-11T14:20:09Z</time>
      </trkpt>
      <trkpt lat="43.64836" lon="2.40125">
        <ele>676.279053</ele>
        <time>2015-11-11T14:20:17Z</time>
      </trkpt>
      <trkpt lat="43.64848" lon="2.40089">
        <ele>671.836792</ele>
        <time>2015-11-11T14:20:21Z</time>
      </trkpt>
      <trkpt lat="43.64855" lon="2.40051">
        <ele>668.292236</ele>
        <time>2015-11-11T14:20:25Z</time>
      </trkpt>
      <trkpt lat="43.64867" lon="2.40009">
        <ele>664.647278</ele>
        <time>2015-11-11T14:20:29Z</time>
      </trkpt>
      <trkpt lat="43.64884" lon="2.39985">
        <ele>661.828674</ele>
        <time>2015-11-11T14:20:35Z</time>
      </trkpt>
      <trkpt lat="43.649" lon="2.39974">
        <ele>660.103577</ele>
        <time>2015-11-11T14:30:03Z</time>
      </trkpt>
      <trkpt lat="43.64918" lon="2.39986">
        <ele>659.077026</ele>
        <time>2015-11-11T14:30:19Z</time>
      </trkpt>
      <trkpt lat="43.64926" lon="2.40012">
        <ele>658.886658</ele>
        <time>2015-11-11T14:30:43Z</time>
      </trkpt>
      <trkpt lat="43.64913" lon="2.40088">
        <ele>659.4375</ele>
        <time>2015-11-11T14:31:07Z</time>
      </trkpt>
      <trkpt lat="43.64911" lon="2.40114">
        <ele>659.38739</ele>
        <time>2015-11-11T14:31:15Z</time>
      </trkpt>
      <trkpt lat="43.64903" lon="2.40137">
        <ele>661.144592</ele>
        <time>2015-11-11T14:31:21Z</time>
      </trkpt>
      <trkpt lat="43.64892" lon="2.40187">
        <ele>664.682495</ele>
        <time>2015-11-11T14:31:39Z</time>
      </trkpt>
      <trkpt lat="43.64899" lon="2.40211">
        <ele>663.081238</ele>
        <time>2015-11-11T14:31:49Z</time>
      </trkpt>
      <trkpt lat="43.64906" lon="2.40269">
        <ele>665.535522</ele>
        <time>2015-11-11T14:32:09Z</time>
      </trkpt>
      <trkpt lat="43.64916" lon="2.40298">
        <ele>667.038757</ele>
        <time>2015-11-11T14:32:17Z</time>
      </trkpt>
      <trkpt lat="43.64934" lon="2.40384">
        <ele>674.173767</ele>
        <time>2015-11-11T14:32:39Z</time>
      </trkpt>
      <trkpt lat="43.6494" lon="2.40435">
        <ele>676.227661</ele>
        <time>2015-11-11T14:32:55Z</time>
      </trkpt>
      <trkpt lat="43.64959" lon="2.40434">
        <ele>676.03717</ele>
        <time>2015-11-11T14:33:09Z</time>
      </trkpt>
      <trkpt lat="43.64972" lon="2.40412">
        <ele>676.23938</ele>
        <time>2015-11-11T14:33:19Z</time>
      </trkpt>
      <trkpt lat="43.65005" lon="2.40375">
        <ele>675.355042</ele>
        <time>2015-11-11T14:33:35Z</time>
      </trkpt>
      <trkpt lat="43.65036" lon="2.40348">
        <ele>676.222473</ele>
        <time>2015-11-11T14:33:53Z</time>
      </trkpt>
      <trkpt lat="43.6506" lon="2.4034">
        <ele>676.218872</ele>
        <time>2015-11-11T14:34:01Z</time>
      </trkpt>
      <trkpt lat="43.65079" lon="2.4034">
        <ele>675.446411</ele>
        <time>2015-11-11T14:34:07Z</time>
      </trkpt>
      <trkpt lat="43.65124" lon="2.4038">
        <ele>675.652771</ele>
        <time>2015-11-11T14:34:17Z</time>
      </trkpt>
      <trkpt lat="43.65141" lon="2.40389">
        <ele>675.383484</ele>
        <time>2015-11-11T14:34:23Z</time>
      </trkpt>
      <trkpt lat="43.65162" lon="2.4038">
        <ele>675.770447</ele>
        <time>2015-11-11T14:34:31Z</time>
      </trkpt>
      <trkpt lat="43.65181" lon="2.40355">
        <ele>672.609192</ele>
        <time>2015-11-11T14:34:37Z</time>
      </trkpt>
      <trkpt lat="43.65198" lon="2.40342">
        <ele>671.349976</ele>
        <time>2015-11-11T14:34:43Z</time>
      </trkpt>
      <trkpt lat="43.65215" lon="2.40333">
        <ele>671.48999</ele>
        <time>2015-11-11T14:34:49Z</time>
      </trkpt>
      <trkpt lat="43.6524" lon="2.40328">
        <ele>672.52002</ele>
        <time>2015-11-11T14:34:57Z</time>
      </trkpt>
      <trkpt lat="43.65256" lon="2.40319">
        <ele>672.227478</ele>
        <time>2015-11-11T14:35:03Z</time>
      </trkpt>
      <trkpt lat="43.65296" lon="2.40286">
        <ele>666.349976</ele>
        <time>2015-11-11T14:35:17Z</time>
      </trkpt>
      <trkpt lat="43.65303" lon="2.40261">
        <ele>663.977905</ele>
        <time>2015-11-11T14:35:27Z</time>
      </trkpt>
      <trkpt lat="43.65323" lon="2.40237">
        <ele>661.529663</ele>
        <time>2015-11-11T14:35:37Z</time>
      </trkpt>
      <trkpt lat="43.65342" lon="2.40229">
        <ele>659.777039</ele>
        <time>2015-11-11T14:35:47Z</time>
      </trkpt>
      <trkpt lat="43.6536" lon="2.40226">
        <ele>658.350037</ele>
        <time>2015-11-11T14:35:53Z</time>
      </trkpt>
      <trkpt lat="43.65402" lon="2.40206">
        <ele>660.226624</ele>
        <time>2015-11-11T14:36:43Z</time>
      </trkpt>
      <trkpt lat="43.65427" lon="2.40161">
        <ele>661.32251</ele>
        <time>2015-11-11T14:36:59Z</time>
      </trkpt>
      <trkpt lat="43.65442" lon="2.40106">
        <ele>661.713135</ele>
        <time>2015-11-11T14:37:23Z</time>
      </trkpt>
      <trkpt lat="43.65445" lon="2.40049">
        <ele>662.172852</ele>
        <time>2015-11-11T14:37:39Z</time>
      </trkpt>
      <trkpt lat="43.65459" lon="2.39974">
        <ele>662.331238</ele>
        <time>2015-11-11T14:38:11Z</time>
      </trkpt>
      <trkpt lat="43.65443" lon="2.39912">
        <ele>660.58252</ele>
        <time>2015-11-11T14:38:23Z</time>
      </trkpt>
      <trkpt lat="43.65442" lon="2.39886">
        <ele>659.890503</ele>
        <time>2015-11-11T14:38:29Z</time>
      </trkpt>
      <trkpt lat="43.65464" lon="2.39873">
        <ele>660.339966</ele>
        <time>2015-11-11T14:38:35Z</time>
      </trkpt>
      <trkpt lat="43.65486" lon="2.39867">
        <ele>661.099976</ele>
        <time>2015-11-11T14:38:41Z</time>
      </trkpt>
      <trkpt lat="43.65531" lon="2.39843">
        <ele>660.15271</ele>
        <time>2015-11-11T14:38:51Z</time>
      </trkpt>
      <trkpt lat="43.65549" lon="2.39842">
        <ele>659.71582</ele>
        <time>2015-11-11T14:38:55Z</time>
      </trkpt>
      <trkpt lat="43.65595" lon="2.39868">
        <ele>659.454285</ele>
        <time>2015-11-11T14:39:07Z</time>
      </trkpt>
      <trkpt lat="43.65639" lon="2.39902">
        <ele>658.777527</ele>
        <time>2015-11-11T14:39:15Z</time>
      </trkpt>
      <trkpt lat="43.65655" lon="2.39921">
        <ele>658.693726</ele>
        <time>2015-11-11T14:39:19Z</time>
      </trkpt>
      <trkpt lat="43.65675" lon="2.39924">
        <ele>658.307495</ele>
        <time>2015-11-11T14:39:23Z</time>
      </trkpt>
      <trkpt lat="43.65699" lon="2.39914">
        <ele>658.08252</ele>
        <time>2015-11-11T14:39:31Z</time>
      </trkpt>
      <trkpt lat="43.65718" lon="2.39899">
        <ele>658</ele>
        <time>2015-11-11T14:39:37Z</time>
      </trkpt>
      <trkpt lat="43.65756" lon="2.39915">
        <ele>659.486328</ele>
        <time>2015-11-11T14:40:03Z</time>
      </trkpt>
      <trkpt lat="43.65775" lon="2.39908">
        <ele>660.313293</ele>
        <time>2015-11-11T14:40:25Z</time>
      </trkpt>
      <trkpt lat="43.65807" lon="2.39879">
        <ele>662.19342</ele>
        <time>2015-11-11T14:40:47Z</time>
      </trkpt>
      <trkpt lat="43.65842" lon="2.39836">
        <ele>663.825012</ele>
        <time>2015-11-11T14:41:03Z</time>
      </trkpt>
      <trkpt lat="43.6585" lon="2.39809">
        <ele>664.453735</ele>
        <time>2015-11-11T14:41:11Z</time>
      </trkpt>
      <trkpt lat="43.65828" lon="2.39757">
        <ele>665.399597</ele>
        <time>2015-11-11T14:41:27Z</time>
      </trkpt>
      <trkpt lat="43.65821" lon="2.3973">
        <ele>666.120239</ele>
        <time>2015-11-11T14:41:33Z</time>
      </trkpt>
      <trkpt lat="43.65825" lon="2.39698">
        <ele>667.557068</ele>
        <time>2015-11-11T14:41:39Z</time>
      </trkpt>
      <trkpt lat="43.65844" lon="2.39627">
        <ele>672.303101</ele>
        <time>2015-11-11T14:41:49Z</time>
      </trkpt>
      <trkpt lat="43.65875" lon="2.39451">
        <ele>672.713745</ele>
        <time>2015-11-11T14:42:19Z</time>
      </trkpt>
      <trkpt lat="43.65883" lon="2.39424">
        <ele>672.308777</ele>
        <time>2015-11-11T14:42:25Z</time>
      </trkpt>
      <trkpt lat="43.65896" lon="2.39404">
        <ele>672.882507</ele>
        <time>2015-11-11T14:42:31Z</time>
      </trkpt>
      <trkpt lat="43.65904" lon="2.39377">
        <ele>672.853638</ele>
        <time>2015-11-11T14:42:37Z</time>
      </trkpt>
      <trkpt lat="43.65912" lon="2.39315">
        <ele>670.628723</ele>
        <time>2015-11-11T14:42:49Z</time>
      </trkpt>
      <trkpt lat="43.65911" lon="2.39287">
        <ele>669.243408</ele>
        <time>2015-11-11T14:42:55Z</time>
      </trkpt>
      <trkpt lat="43.659" lon="2.39262">
        <ele>667.869995</ele>
        <time>2015-11-11T14:43:01Z</time>
      </trkpt>
      <trkpt lat="43.65892" lon="2.39205">
        <ele>665.325562</ele>
        <time>2015-11-11T14:43:13Z</time>
      </trkpt>
      <trkpt lat="43.65892" lon="2.39176">
        <ele>664.169922</ele>
        <time>2015-11-11T14:43:21Z</time>
      </trkpt>
      <trkpt lat="43.65928" lon="2.39078">
        <ele>662.552795</ele>
        <time>2015-11-11T14:43:51Z</time>
      </trkpt>
      <trkpt lat="43.6593" lon="2.3902">
        <ele>664.056763</ele>
        <time>2015-11-11T14:44:07Z</time>
      </trkpt>
      <trkpt lat="43.65935" lon="2.38992">
        <ele>665.030945</ele>
        <time>2015-11-11T14:44:13Z</time>
      </trkpt>
      <trkpt lat="43.65953" lon="2.38947">
        <ele>665.789978</ele>
        <time>2015-11-11T14:44:25Z</time>
      </trkpt>
      <trkpt lat="43.65943" lon="2.38858">
        <ele>663.809326</ele>
        <time>2015-11-11T14:44:47Z</time>
      </trkpt>
      <trkpt lat="43.65937" lon="2.38831">
        <ele>663.51001</ele>
        <time>2015-11-11T14:44:53Z</time>
      </trkpt>
      <trkpt lat="43.6593" lon="2.38724">
        <ele>661.476135</ele>
        <time>2015-11-11T14:45:07Z</time>
      </trkpt>
      <trkpt lat="43.65917" lon="2.3866">
        <ele>656.877502</ele>
        <time>2015-11-11T14:45:15Z</time>
      </trkpt>
      <trkpt lat="43.65863" lon="2.38523">
        <ele>645.817139</ele>
        <time>2015-11-11T14:45:35Z</time>
      </trkpt>
      <trkpt lat="43.65879" lon="2.38512">
        <ele>644.983887</ele>
        <time>2015-11-11T14:45:49Z</time>
      </trkpt>
      <trkpt lat="43.65901" lon="2.38523">
        <ele>645.646545</ele>
        <time>2015-11-11T14:45:55Z</time>
      </trkpt>
      <trkpt lat="43.6592" lon="2.38538">
        <ele>646.700012</ele>
        <time>2015-11-11T14:46:01Z</time>
      </trkpt>
      <trkpt lat="43.65962" lon="2.38559">
        <ele>647.134277</ele>
        <time>2015-11-11T14:46:17Z</time>
      </trkpt>
      <trkpt lat="43.65984" lon="2.38584">
        <ele>647.15863</ele>
        <time>2015-11-11T14:46:23Z</time>
      </trkpt>
      <trkpt lat="43.66009" lon="2.38577">
        <ele>642.522034</ele>
        <time>2015-11-11T14:46:25Z</time>
      </trkpt>
      <trkpt lat="43.66025" lon="2.38555">
        <ele>637.496948</ele>
        <time>2015-11-11T14:46:31Z</time>
      </trkpt>
      <trkpt lat="43.66045" lon="2.38543">
        <ele>631.70874</ele>
        <time>2015-11-11T14:46:35Z</time>
      </trkpt>
      <trkpt lat="43.66071" lon="2.38544">
        <ele>624.862488</ele>
        <time>2015-11-11T14:46:41Z</time>
      </trkpt>
      <trkpt lat="43.66087" lon="2.38561">
        <ele>622.399841</ele>
        <time>2015-11-11T14:46:45Z</time>
      </trkpt>
      <trkpt lat="43.66097" lon="2.38588">
        <ele>622.877258</ele>
        <time>2015-11-11T14:46:49Z</time>
      </trkpt>
      <trkpt lat="43.66099" lon="2.38615">
        <ele>624.618958</ele>
        <time>2015-11-11T14:46:53Z</time>
      </trkpt>
      <trkpt lat="43.66119" lon="2.38632">
        <ele>620.719788</ele>
        <time>2015-11-11T14:46:59Z</time>
      </trkpt>
      <trkpt lat="43.66139" lon="2.38638">
        <ele>617.242493</ele>
        <time>2015-11-11T14:47:03Z</time>
      </trkpt>
      <trkpt lat="43.6616" lon="2.3865">
        <ele>614.357483</ele>
        <time>2015-11-11T14:47:09Z</time>
      </trkpt>
      <trkpt lat="43.6616" lon="2.38676">
        <ele>615.310547</ele>
        <time>2015-11-11T14:47:19Z</time>
      </trkpt>
      <trkpt lat="43.66168" lon="2.38703">
        <ele>615.519287</ele>
        <time>2015-11-11T14:47:27Z</time>
      </trkpt>
      <trkpt lat="43.6618" lon="2.38724">
        <ele>614.796143</ele>
        <time>2015-11-11T14:47:33Z</time>
      </trkpt>
      <trkpt lat="43.6618" lon="2.38751">
        <ele>615.927979</ele>
        <time>2015-11-11T14:47:41Z</time>
      </trkpt>
      <trkpt lat="43.66184" lon="2.38781">
        <ele>616.330383</ele>
        <time>2015-11-11T14:47:47Z</time>
      </trkpt>
      <trkpt lat="43.66184" lon="2.38807">
        <ele>616.794983</ele>
        <time>2015-11-11T14:47:51Z</time>
      </trkpt>
      <trkpt lat="43.66168" lon="2.38872">
        <ele>621.582031</ele>
        <time>2015-11-11T14:48:03Z</time>
      </trkpt>
      <trkpt lat="43.66166" lon="2.389">
        <ele>623.44635</ele>
        <time>2015-11-11T14:48:07Z</time>
      </trkpt>
      <trkpt lat="43.66178" lon="2.38926">
        <ele>622.078186</ele>
        <time>2015-11-11T14:48:13Z</time>
      </trkpt>
      <trkpt lat="43.66229" lon="2.38972">
        <ele>619.518494</ele>
        <time>2015-11-11T14:48:33Z</time>
      </trkpt>
      <trkpt lat="43.66244" lon="2.38992">
        <ele>619.282959</ele>
        <time>2015-11-11T14:48:43Z</time>
      </trkpt>
      <trkpt lat="43.66267" lon="2.39054">
        <ele>619.362488</ele>
        <time>2015-11-11T14:48:55Z</time>
      </trkpt>
      <trkpt lat="43.66284" lon="2.39075">
        <ele>619.632507</ele>
        <time>2015-11-11T14:48:59Z</time>
      </trkpt>
      <trkpt lat="43.66303" lon="2.39082">
        <ele>619.11377</ele>
        <time>2015-11-11T14:49:05Z</time>
      </trkpt>
      <trkpt lat="43.66335" lon="2.39056">
        <ele>620.70752</ele>
        <time>2015-11-11T14:49:19Z</time>
      </trkpt>
      <trkpt lat="43.66371" lon="2.39019">
        <ele>624.195007</ele>
        <time>2015-11-11T14:49:39Z</time>
      </trkpt>
      <trkpt lat="43.66409" lon="2.39007">
        <ele>629.195007</ele>
        <time>2015-11-11T14:50:05Z</time>
      </trkpt>
      <trkpt lat="43.66425" lon="2.39018">
        <ele>631.664551</ele>
        <time>2015-11-11T14:50:15Z</time>
      </trkpt>
      <trkpt lat="43.6643" lon="2.39047">
        <ele>633.675598</ele>
        <time>2015-11-11T14:50:27Z</time>
      </trkpt>
      <trkpt lat="43.66421" lon="2.39128">
        <ele>637.761108</ele>
        <time>2015-11-11T14:51:01Z</time>
      </trkpt>
      <trkpt lat="43.66421" lon="2.39158">
        <ele>639.236938</ele>
        <time>2015-11-11T14:51:13Z</time>
      </trkpt>
      <trkpt lat="43.66401" lon="2.39237">
        <ele>641.761414</ele>
        <time>2015-11-11T14:51:47Z</time>
      </trkpt>
      <trkpt lat="43.66414" lon="2.39257">
        <ele>643.714417</ele>
        <time>2015-11-11T14:51:59Z</time>
      </trkpt>
      <trkpt lat="43.66432" lon="2.39265">
        <ele>645.384766</ele>
        <time>2015-11-11T14:52:11Z</time>
      </trkpt>
      <trkpt lat="43.66487" lon="2.39261">
        <ele>650.056152</ele>
        <time>2015-11-11T14:53:05Z</time>
      </trkpt>
      <trkpt lat="43.66504" lon="2.39271">
        <ele>651.604858</ele>
        <time>2015-11-11T14:54:13Z</time>
      </trkpt>
      <trkpt lat="43.66509" lon="2.39299">
        <ele>652.544128</ele>
        <time>2015-11-11T14:54:29Z</time>
      </trkpt>
      <trkpt lat="43.66524" lon="2.39313">
        <ele>653.556763</ele>
        <time>2015-11-11T14:54:41Z</time>
      </trkpt>
      <trkpt lat="43.66542" lon="2.393">
        <ele>654.783081</ele>
        <time>2015-11-11T14:54:45Z</time>
      </trkpt>
      <trkpt lat="43.6656" lon="2.39301">
        <ele>656.266296</ele>
        <time>2015-11-11T14:54:49Z</time>
      </trkpt>
      <trkpt lat="43.6658" lon="2.3932">
        <ele>657.284973</ele>
        <time>2015-11-11T14:54:55Z</time>
      </trkpt>
      <trkpt lat="43.66596" lon="2.39344">
        <ele>657.577515</ele>
        <time>2015-11-11T14:55:01Z</time>
      </trkpt>
      <trkpt lat="43.66615" lon="2.39349">
        <ele>658.637512</ele>
        <time>2015-11-11T14:55:10Z</time>
      </trkpt>
      <trkpt lat="43.66614" lon="2.3938">
        <ele>654.289185</ele>
        <time>2015-11-11T14:56:08Z</time>
      </trkpt>
      <trkpt lat="43.66617" lon="2.39409">
        <ele>649.860901</ele>
        <time>2015-11-11T14:56:14Z</time>
      </trkpt>
      <trkpt lat="43.66642" lon="2.39459">
        <ele>643.900269</ele>
        <time>2015-11-11T14:56:28Z</time>
      </trkpt>
      <trkpt lat="43.66681" lon="2.39489">
        <ele>645.650024</ele>
        <time>2015-11-11T14:56:42Z</time>
      </trkpt>
      <trkpt lat="43.66694" lon="2.39507">
        <ele>646.565002</ele>
        <time>2015-11-11T14:56:50Z</time>
      </trkpt>
      <trkpt lat="43.66717" lon="2.39549">
        <ele>647.769714</ele>
        <time>2015-11-11T14:57:20Z</time>
      </trkpt>
      <trkpt lat="43.66731" lon="2.39568">
        <ele>649.263062</ele>
        <time>2015-11-11T14:57:38Z</time>
      </trkpt>
      <trkpt lat="43.66749" lon="2.39566">
        <ele>653.138977</ele>
        <time>2015-11-11T14:57:58Z</time>
      </trkpt>
      <trkpt lat="43.66813" lon="2.3954">
        <ele>657.124512</ele>
        <time>2015-11-11T14:58:28Z</time>
      </trkpt>
      <trkpt lat="43.66842" lon="2.39577">
        <ele>653.226257</ele>
        <time>2015-11-11T14:58:38Z</time>
      </trkpt>
      <trkpt lat="43.66849" lon="2.39602">
        <ele>651.836243</ele>
        <time>2015-11-11T14:58:46Z</time>
      </trkpt>
      <trkpt lat="43.66863" lon="2.39617">
        <ele>650.276245</ele>
        <time>2015-11-11T14:58:56Z</time>
      </trkpt>
      <trkpt lat="43.66882" lon="2.39625">
        <ele>649.27124</ele>
        <time>2015-11-11T14:59:06Z</time>
      </trkpt>
      <trkpt lat="43.66939" lon="2.39569">
        <ele>650.867493</ele>
        <time>2015-11-11T14:59:26Z</time>
      </trkpt>
      <trkpt lat="43.66949" lon="2.39539">
        <ele>651.154968</ele>
        <time>2015-11-11T14:59:32Z</time>
      </trkpt>
      <trkpt lat="43.66966" lon="2.39521">
        <ele>649.548889</ele>
        <time>2015-11-11T14:59:38Z</time>
      </trkpt>
      <trkpt lat="43.66974" lon="2.39495">
        <ele>648.208435</ele>
        <time>2015-11-11T14:59:42Z</time>
      </trkpt>
      <trkpt lat="43.66974" lon="2.39464">
        <ele>646.88623</ele>
        <time>2015-11-11T14:59:50Z</time>
      </trkpt>
      <trkpt lat="43.6692" lon="2.39412">
        <ele>650.266174</ele>
        <time>2015-11-11T15:00:14Z</time>
      </trkpt>
      <trkpt lat="43.66921" lon="2.39385">
        <ele>651.189514</ele>
        <time>2015-11-11T15:00:22Z</time>
      </trkpt>
      <trkpt lat="43.66912" lon="2.3936">
        <ele>653.599487</ele>
        <time>2015-11-11T15:00:32Z</time>
      </trkpt>
      <trkpt lat="43.66914" lon="2.39333">
        <ele>655.55835</ele>
        <time>2015-11-11T15:01:00Z</time>
      </trkpt>
      <trkpt lat="43.66901" lon="2.39316">
        <ele>658.592529</ele>
        <time>2015-11-11T15:01:58Z</time>
      </trkpt>
      <trkpt lat="43.66903" lon="2.3929">
        <ele>660.571716</ele>
        <time>2015-11-11T15:02:22Z</time>
      </trkpt>
      <trkpt lat="43.66889" lon="2.39268">
        <ele>662.117737</ele>
        <time>2015-11-11T15:02:42Z</time>
      </trkpt>
      <trkpt lat="43.66905" lon="2.39249">
        <ele>662.676941</ele>
        <time>2015-11-11T15:02:58Z</time>
      </trkpt>
      <trkpt lat="43.66909" lon="2.39221">
        <ele>663.55304</ele>
        <time>2015-11-11T15:03:10Z</time>
      </trkpt>
      <trkpt lat="43.6692" lon="2.39199">
        <ele>663.045593</ele>
        <time>2015-11-11T15:03:16Z</time>
      </trkpt>
      <trkpt lat="43.66927" lon="2.39169">
        <ele>662.440735</ele>
        <time>2015-11-11T15:03:22Z</time>
      </trkpt>
      <trkpt lat="43.66898" lon="2.39121">
        <ele>664.338562</ele>
        <time>2015-11-11T15:03:42Z</time>
      </trkpt>
      <trkpt lat="43.66887" lon="2.39072">
        <ele>664.946533</ele>
        <time>2015-11-11T15:04:00Z</time>
      </trkpt>
      <trkpt lat="43.66874" lon="2.39046">
        <ele>664.985168</ele>
        <time>2015-11-11T15:04:14Z</time>
      </trkpt>
      <trkpt lat="43.66868" lon="2.39019">
        <ele>664.217529</ele>
        <time>2015-11-11T15:04:24Z</time>
      </trkpt>
      <trkpt lat="43.66855" lon="2.39001">
        <ele>663.61499</ele>
        <time>2015-11-11T15:04:30Z</time>
      </trkpt>
      <trkpt lat="43.66836" lon="2.3899">
        <ele>662.73645</ele>
        <time>2015-11-11T15:04:38Z</time>
      </trkpt>
      <trkpt lat="43.66818" lon="2.38997">
        <ele>661.92334</ele>
        <time>2015-11-11T15:04:46Z</time>
      </trkpt>
      <trkpt lat="43.66788" lon="2.3903">
        <ele>658.86499</ele>
        <time>2015-11-11T15:05:04Z</time>
      </trkpt>
      <trkpt lat="43.66777" lon="2.39054">
        <ele>657.332886</ele>
        <time>2015-11-11T15:05:08Z</time>
      </trkpt>
      <trkpt lat="43.66772" lon="2.39079">
        <ele>657.104797</ele>
        <time>2015-11-11T15:05:14Z</time>
      </trkpt>
      <trkpt lat="43.66753" lon="2.3908">
        <ele>654.704407</ele>
        <time>2015-11-11T15:05:36Z</time>
      </trkpt>
      <trkpt lat="43.66737" lon="2.39054">
        <ele>650.975708</ele>
        <time>2015-11-11T15:05:44Z</time>
      </trkpt>
      <trkpt lat="43.6673" lon="2.39028">
        <ele>649.158997</ele>
        <time>2015-11-11T15:05:50Z</time>
      </trkpt>
      <trkpt lat="43.66708" lon="2.39001">
        <ele>644.720276</ele>
        <time>2015-11-11T15:05:56Z</time>
      </trkpt>
      <trkpt lat="43.66674" lon="2.3895">
        <ele>638.462524</ele>
        <time>2015-11-11T15:06:08Z</time>
      </trkpt>
      <trkpt lat="43.66679" lon="2.38915">
        <ele>639.798279</ele>
        <time>2015-11-11T15:06:14Z</time>
      </trkpt>
      <trkpt lat="43.66648" lon="2.38877">
        <ele>633.973755</ele>
        <time>2015-11-11T15:06:22Z</time>
      </trkpt>
      <trkpt lat="43.66638" lon="2.38848">
        <ele>632.567017</ele>
        <time>2015-11-11T15:06:32Z</time>
      </trkpt>
      <trkpt lat="43.66584" lon="2.38795">
        <ele>618.373779</ele>
        <time>2015-11-11T15:06:48Z</time>
      </trkpt>
      <trkpt lat="43.66582" lon="2.38739">
        <ele>614.90625</ele>
        <time>2015-11-11T15:06:56Z</time>
      </trkpt>
      <trkpt lat="43.66606" lon="2.38633">
        <ele>614.558655</ele>
        <time>2015-11-11T15:07:08Z</time>
      </trkpt>
      <trkpt lat="43.66616" lon="2.38574">
        <ele>609.988586</ele>
        <time>2015-11-11T15:07:16Z</time>
      </trkpt>
      <trkpt lat="43.66624" lon="2.38551">
        <ele>607.819702</ele>
        <time>2015-11-11T15:07:20Z</time>
      </trkpt>
      <trkpt lat="43.66622" lon="2.38522">
        <ele>604.4552</ele>
        <time>2015-11-11T15:07:24Z</time>
      </trkpt>
      <trkpt lat="43.66613" lon="2.38497">
        <ele>602.103516</ele>
        <time>2015-11-11T15:07:28Z</time>
      </trkpt>
      <trkpt lat="43.66598" lon="2.38481">
        <ele>601.407776</ele>
        <time>2015-11-11T15:07:34Z</time>
      </trkpt>
      <trkpt lat="43.66593" lon="2.38425">
        <ele>600.30365</ele>
        <time>2015-11-11T15:07:52Z</time>
      </trkpt>
      <trkpt lat="43.66611" lon="2.38374">
        <ele>597.267761</ele>
        <time>2015-11-11T15:08:04Z</time>
      </trkpt>
      <trkpt lat="43.66616" lon="2.38337">
        <ele>597.083496</ele>
        <time>2015-11-11T15:08:10Z</time>
      </trkpt>
      <trkpt lat="43.66598" lon="2.38286">
        <ele>600.103943</ele>
        <time>2015-11-11T15:08:16Z</time>
      </trkpt>
      <trkpt lat="43.66594" lon="2.3826">
        <ele>599.860168</ele>
        <time>2015-11-11T15:08:20Z</time>
      </trkpt>
      <trkpt lat="43.66565" lon="2.38214">
        <ele>600.820129</ele>
        <time>2015-11-11T15:08:34Z</time>
      </trkpt>
      <trkpt lat="43.66545" lon="2.38201">
        <ele>600.729126</ele>
        <time>2015-11-11T15:08:42Z</time>
      </trkpt>
      <trkpt lat="43.66503" lon="2.38189">
        <ele>600.315857</ele>
        <time>2015-11-11T15:08:50Z</time>
      </trkpt>
      <trkpt lat="43.66487" lon="2.38168">
        <ele>598.546997</ele>
        <time>2015-11-11T15:08:56Z</time>
      </trkpt>
      <trkpt lat="43.6647" lon="2.38095">
        <ele>595.171204</ele>
        <time>2015-11-11T15:09:08Z</time>
      </trkpt>
      <trkpt lat="43.66469" lon="2.38065">
        <ele>592.191101</ele>
        <time>2015-11-11T15:09:14Z</time>
      </trkpt>
      <trkpt lat="43.66448" lon="2.38012">
        <ele>590.170105</ele>
        <time>2015-11-11T15:09:28Z</time>
      </trkpt>
      <trkpt lat="43.66432" lon="2.37991">
        <ele>590.730103</ele>
        <time>2015-11-11T15:09:34Z</time>
      </trkpt>
      <trkpt lat="43.66406" lon="2.37943">
        <ele>587.305115</ele>
        <time>2015-11-11T15:09:44Z</time>
      </trkpt>
      <trkpt lat="43.66388" lon="2.37892">
        <ele>580.759521</ele>
        <time>2015-11-11T15:09:54Z</time>
      </trkpt>
      <trkpt lat="43.66385" lon="2.37855">
        <ele>575.641235</ele>
        <time>2015-11-11T15:10:00Z</time>
      </trkpt>
      <trkpt lat="43.66375" lon="2.37831">
        <ele>572.338745</ele>
        <time>2015-11-11T15:10:06Z</time>
      </trkpt>
      <trkpt lat="43.66371" lon="2.37797">
        <ele>567.649231</ele>
        <time>2015-11-11T15:10:10Z</time>
      </trkpt>
      <trkpt lat="43.66355" lon="2.37764">
        <ele>563.721985</ele>
        <time>2015-11-11T15:10:16Z</time>
      </trkpt>
      <trkpt lat="43.66348" lon="2.37741">
        <ele>560.671631</ele>
        <time>2015-11-11T15:10:20Z</time>
      </trkpt>
      <trkpt lat="43.66327" lon="2.37733">
        <ele>559.583618</ele>
        <time>2015-11-11T15:10:26Z</time>
      </trkpt>
      <trkpt lat="43.66305" lon="2.37731">
        <ele>559.536865</ele>
        <time>2015-11-11T15:10:30Z</time>
      </trkpt>
      <trkpt lat="43.66266" lon="2.37741">
        <ele>564.471069</ele>
        <time>2015-11-11T15:10:38Z</time>
      </trkpt>
      <trkpt lat="43.66249" lon="2.37723">
        <ele>565.059814</ele>
        <time>2015-11-11T15:10:44Z</time>
      </trkpt>
      <trkpt lat="43.66249" lon="2.37692">
        <ele>562.742188</ele>
        <time>2015-11-11T15:10:50Z</time>
      </trkpt>
      <trkpt lat="43.66276" lon="2.37648">
        <ele>561.157288</ele>
        <time>2015-11-11T15:11:02Z</time>
      </trkpt>
      <trkpt lat="43.66303" lon="2.37554">
        <ele>565.094971</ele>
        <time>2015-11-11T15:11:26Z</time>
      </trkpt>
      <trkpt lat="43.66304" lon="2.37528">
        <ele>566.655029</ele>
        <time>2015-11-11T15:11:32Z</time>
      </trkpt>
      <trkpt lat="43.66321" lon="2.37474">
        <ele>567.210815</ele>
        <time>2015-11-11T15:11:46Z</time>
      </trkpt>
      <trkpt lat="43.66333" lon="2.3745">
        <ele>567.461731</ele>
        <time>2015-11-11T15:11:54Z</time>
      </trkpt>
      <trkpt lat="43.6634" lon="2.37425">
        <ele>568.333435</ele>
        <time>2015-11-11T15:12:02Z</time>
      </trkpt>
      <trkpt lat="43.66326" lon="2.37372">
        <ele>572.840454</ele>
        <time>2015-11-11T15:12:20Z</time>
      </trkpt>
      <trkpt lat="43.66325" lon="2.37341">
        <ele>572.481262</ele>
        <time>2015-11-11T15:12:28Z</time>
      </trkpt>
      <trkpt lat="43.6633" lon="2.37312">
        <ele>571.153748</ele>
        <time>2015-11-11T15:12:36Z</time>
      </trkpt>
      <trkpt lat="43.66321" lon="2.37286">
        <ele>572.550293</ele>
        <time>2015-11-11T15:12:42Z</time>
      </trkpt>
      <trkpt lat="43.66319" lon="2.37222">
        <ele>575.27002</ele>
        <time>2015-11-11T15:12:54Z</time>
      </trkpt>
      <trkpt lat="43.66311" lon="2.37195">
        <ele>579.650024</ele>
        <time>2015-11-11T15:12:58Z</time>
      </trkpt>
      <trkpt lat="43.66312" lon="2.37125">
        <ele>587.394592</ele>
        <time>2015-11-11T15:13:12Z</time>
      </trkpt>
      <trkpt lat="43.663" lon="2.37049">
        <ele>589.961243</ele>
        <time>2015-11-11T15:13:22Z</time>
      </trkpt>
      <trkpt lat="43.66279" lon="2.3698">
        <ele>589.214539</ele>
        <time>2015-11-11T15:13:30Z</time>
      </trkpt>
      <trkpt lat="43.66252" lon="2.36925">
        <ele>589.301636</ele>
        <time>2015-11-11T15:13:38Z</time>
      </trkpt>
    </trkseg>
  </trk>
</gpx>